Wetterdaten: Dienstag, 13.10.2020
Datum Zeit Temp. Aussen Temp. o. S. Temp +5cm Feuchte Auss Luftdruck Regen Sonnenschein Regendauer Solar Windben Empfang
13.10.2020 00:00 8,4 C 7,2 C 9,4 C 94 % 1016,8 hPa 0,0 l/m 0 min 0 min 0 W/m 0,0 km/h (0 Bft) 95,74 %
13.10.2020 00:02 8,4 C 7,2 C 9,4 C 94 % 1016,9 hPa 0,0 l/m 0 min 0 min 0 W/m 6,4 km/h (2 Bft) 93,48 %
13.10.2020 00:04 8,4 C 7,8 C 9,4 C 95 % 1016,8 hPa 0,0 l/m 0 min 0 min 0 W/m 6,4 km/h (2 Bft) 95,74 %
13.10.2020 00:07 8,4 C 7,2 C 9,4 C 95 % 1016,8 hPa 0,0 l/m 0 min 0 min 0 W/m 6,4 km/h (2 Bft) 94,52 %
13.10.2020 00:08 8,3 C 7,2 C 9,4 C 95 % 1016,8 hPa 0,0 l/m 0 min 0 min 0 W/m 6,4 km/h (2 Bft) 100,00 %
13.10.2020 00:10 8,3 C 7,2 C 9,4 C 95 % 1016,7 hPa 0,0 l/m 0 min 0 min 0 W/m 3,2 km/h (1 Bft) 95,74 %
13.10.2020 00:12 8,3 C 7,2 C 9,4 C 95 % 1016,7 hPa 0,0 l/m 0 min 0 min 0 W/m 6,4 km/h (2 Bft) 95,74 %
13.10.2020 00:14 8,3 C 7,2 C 9,4 C 94 % 1016,7 hPa 0,0 l/m 0 min 0 min 0 W/m 3,2 km/h (1 Bft) 97,87 %
13.10.2020 00:16 8,3 C 7,2 C 9,4 C 94 % 1016,8 hPa 0,0 l/m 0 min 0 min 0 W/m 12,9 km/h (3 Bft) 97,87 %
13.10.2020 00:18 8,3 C 7,8 C 10,0 C 94 % 1016,8 hPa 0,0 l/m 0 min 0 min 0 W/m 12,9 km/h (3 Bft) 100,00 %
13.10.2020 00:20 8,3 C 7,8 C 10,0 C 94 % 1016,7 hPa 0,0 l/m 0 min 0 min 0 W/m 6,4 km/h (2 Bft) 97,83 %
13.10.2020 00:22 8,3 C 7,2 C 9,4 C 94 % 1016,7 hPa 0,0 l/m 0 min 0 min 0 W/m 6,4 km/h (2 Bft) 95,74 %
13.10.2020 00:24 8,3 C 7,2 C 9,4 C 95 % 1016,7 hPa 0,0 l/m 0 min 0 min 0 W/m 3,2 km/h (1 Bft) 97,87 %
13.10.2020 00:26 8,3 C 7,2 C 9,4 C 95 % 1016,7 hPa 0,0 l/m 0 min 0 min 0 W/m 6,4 km/h (2 Bft) 95,74 %
13.10.2020 00:28 8,3 C 7,2 C 9,4 C 95 % 1016,7 hPa 0,0 l/m 0 min 0 min 0 W/m 12,9 km/h (3 Bft) 97,87 %
13.10.2020 00:30 8,3 C 7,2 C 9,4 C 95 % 1016,7 hPa 0,0 l/m 0 min 0 min 0 W/m 6,4 km/h (2 Bft) 95,74 %
13.10.2020 00:32 8,3 C 7,2 C 9,4 C 95 % 1016,7 hPa 0,0 l/m 0 min 0 min 0 W/m 6,4 km/h (2 Bft) 100,00 %
13.10.2020 00:34 8,3 C 7,2 C 9,4 C 95 % 1016,7 hPa 0,0 l/m 0 min 0 min 0 W/m 6,4 km/h (2 Bft) 97,83 %
13.10.2020 00:36 8,3 C 7,2 C 9,4 C 95 % 1016,7 hPa 0,0 l/m 0 min 0 min 0 W/m 6,4 km/h (2 Bft) 95,74 %
13.10.2020 00:38 8,3 C 7,2 C 9,4 C 95 % 1016,7 hPa 0,0 l/m 0 min 0 min 0 W/m 12,9 km/h (3 Bft) 95,74 %
13.10.2020 00:40 8,2 C 7,2 C 9,4 C 95 % 1016,7 hPa 0,0 l/m 0 min 0 min 0 W/m 6,4 km/h (2 Bft) 97,87 %
13.10.2020 00:42 8,2 C 7,2 C 9,4 C 95 % 1016,6 hPa 0,0 l/m 0 min 0 min 0 W/m 12,9 km/h (3 Bft) 95,74 %
13.10.2020 00:44 8,2 C 7,2 C 9,4 C 95 % 1016,7 hPa 0,0 l/m 0 min 0 min 0 W/m 12,9 km/h (3 Bft) 97,87 %
13.10.2020 00:46 8,2 C 7,2 C 9,4 C 95 % 1016,6 hPa 0,0 l/m 0 min 0 min 0 W/m 6,4 km/h (2 Bft) 97,83 %
13.10.2020 00:48 8,2 C 7,2 C 9,4 C 95 % 1016,6 hPa 0,0 l/m 0 min 0 min 0 W/m 6,4 km/h (2 Bft) 95,74 %
13.10.2020 00:50 8,2 C 7,2 C 9,4 C 95 % 1016,5 hPa 0,0 l/m 0 min 0 min 0 W/m 6,4 km/h (2 Bft) 97,87 %
13.10.2020 00:52 8,2 C 7,2 C 9,4 C 95 % 1016,5 hPa 0,0 l/m 0 min 0 min 0 W/m 6,4 km/h (2 Bft) 97,87 %
13.10.2020 00:54 8,2 C 7,2 C 9,4 C 95 % 1016,5 hPa 0,0 l/m 0 min 0 min 0 W/m 6,4 km/h (2 Bft) 95,74 %
13.10.2020 00:56 8,2 C 7,2 C 9,4 C 95 % 1016,5 hPa 0,0 l/m 0 min 0 min 0 W/m 6,4 km/h (2 Bft) 97,83 %
13.10.2020 00:58 8,2 C 7,2 C 9,4 C 95 % 1016,5 hPa 0,0 l/m 0 min 0 min 0 W/m 6,4 km/h (2 Bft) 95,74 %
13.10.2020 01:00 8,2 C 7,2 C 9,4 C 95 % 1016,4 hPa 0,0 l/m 0 min 0 min 0 W/m 6,4 km/h (2 Bft) 95,74 %
13.10.2020 01:02 8,2 C 7,2 C 9,4 C 95 % 1016,4 hPa 0,0 l/m 0 min 0 min 0 W/m 0,0 km/h (0 Bft) 95,74 %
13.10.2020 01:04 8,2 C 7,2 C 10,0 C 95 % 1016,5 hPa 0,0 l/m 0 min 0 min 0 W/m 3,2 km/h (1 Bft) 97,87 %
13.10.2020 01:06 8,2 C 7,2 C 9,4 C 95 % 1016,4 hPa 0,0 l/m 0 min 0 min 0 W/m 6,4 km/h (2 Bft) 97,87 %
13.10.2020 01:08 8,2 C 7,2 C 9,4 C 95 % 1016,3 hPa 0,0 l/m 0 min 0 min 0 W/m 3,2 km/h (1 Bft) 97,83 %
13.10.2020 01:10 8,2 C 7,2 C 9,4 C 95 % 1016,4 hPa 0,0 l/m 0 min 0 min 0 W/m 0,0 km/h (0 Bft) 97,87 %
13.10.2020 01:12 8,2 C 7,2 C 9,4 C 95 % 1016,4 hPa 0,0 l/m 0 min 0 min 0 W/m 0,0 km/h (0 Bft) 97,87 %
13.10.2020 01:14 8,2 C 7,2 C 9,4 C 95 % 1016,3 hPa 0,0 l/m 0 min 0 min 0 W/m 0,0 km/h (0 Bft) 97,87 %
13.10.2020 01:16 8,2 C 7,2 C 9,4 C 95 % 1016,3 hPa 0,0 l/m 0 min 0 min 0 W/m 0,0 km/h (0 Bft) 97,87 %
13.10.2020 01:18 8,2 C 7,2 C 10,0 C 95 % 1016,3 hPa 0,0 l/m 0 min 0 min 0 W/m 0,0 km/h (0 Bft) 95,74 %
13.10.2020 01:20 8,2 C 7,2 C 9,4 C 95 % 1016,3 hPa 0,0 l/m 0 min 0 min 0 W/m 0,0 km/h (0 Bft) 97,83 %
13.10.2020 01:22 8,2 C 7,2 C 9,4 C 95 % 1016,3 hPa 0,0 l/m 0 min 0 min 0 W/m 0,0 km/h (0 Bft) 97,87 %
13.10.2020 01:24 8,2 C 7,2 C 9,4 C 95 % 1016,2 hPa 0,0 l/m 0 min 0 min 0 W/m 0,0 km/h (0 Bft) 97,87 %
13.10.2020 01:26 8,2 C 7,2 C 9,4 C 95 % 1016,2 hPa 0,0 l/m 0 min 0 min 0 W/m 0,0 km/h (0 Bft) 97,87 %
13.10.2020 01:28 8,2 C 7,2 C 9,4 C 95 % 1016,2 hPa 0,0 l/m 0 min 0 min 0 W/m 0,0 km/h (0 Bft) 100,00 %
13.10.2020 01:30 8,2 C 7,2 C 9,4 C 95 % 1016,1 hPa 0,0 l/m 0 min 0 min 0 W/m 0,0 km/h (0 Bft) 100,00 %
13.10.2020 01:32 8,2 C 7,2 C 9,4 C 95 % 1016,1 hPa 0,0 l/m 0 min 0 min 0 W/m 6,4 km/h (2 Bft) 100,00 %
13.10.2020 01:34 8,2 C 7,2 C 9,4 C 95 % 1016,1 hPa 0,0 l/m 0 min 0 min 0 W/m 6,4 km/h (2 Bft) 97,87 %
13.10.2020 01:36 8,1 C 7,2 C 9,4 C 95 % 1016,1 hPa 0,0 l/m 0 min 0 min 0 W/m 6,4 km/h (2 Bft) 100,00 %
13.10.2020 01:38 8,2 C 7,2 C 9,4 C 95 % 1016,1 hPa 0,0 l/m 0 min 0 min 0 W/m 6,4 km/h (2 Bft) 100,00 %
13.10.2020 01:40 8,1 C 7,2 C 9,4 C 95 % 1016,0 hPa 0,0 l/m 0 min 0 min 0 W/m 6,4 km/h (2 Bft) 97,87 %
13.10.2020 01:42 8,1 C 7,2 C 9,4 C 95 % 1016,0 hPa 0,0 l/m 0 min 0 min 0 W/m 12,9 km/h (3 Bft) 100,00 %
13.10.2020 01:44 8,1 C 7,2 C 9,4 C 95 % 1015,9 hPa 0,0 l/m 0 min 0 min 0 W/m 6,4 km/h (2 Bft) 97,83 %
13.10.2020 01:46 8,1 C 7,2 C 9,4 C 95 % 1015,9 hPa 0,0 l/m 0 min 0 min 0 W/m 0,0 km/h (0 Bft) 100,00 %
13.10.2020 01:48 8,1 C 7,2 C 9,4 C 95 % 1015,9 hPa 0,0 l/m 0 min 0 min 0 W/m 0,0 km/h (0 Bft) 100,00 %
13.10.2020 01:50 8,1 C 7,2 C 9,4 C 95 % 1015,9 hPa 0,0 l/m 0 min 0 min 0 W/m 0,0 km/h (0 Bft) 97,87 %
13.10.2020 01:52 8,1 C 7,2 C 9,4 C 95 % 1015,8 hPa 0,0 l/m 0 min 0 min 0 W/m 0,0 km/h (0 Bft) 100,00 %
13.10.2020 01:54 8,1 C 7,2 C 9,4 C 95 % 1015,8 hPa 0,0 l/m 0 min 0 min 0 W/m 0,0 km/h (0 Bft) 100,00 %
13.10.2020 01:56 8,1 C 7,2 C 9,4 C 95 % 1015,8 hPa 0,0 l/m 0 min 0 min 0 W/m 0,0 km/h (0 Bft) 100,00 %
13.10.2020 01:58 8,1 C 6,7 C 9,4 C 95 % 1015,8 hPa 0,0 l/m 0 min 0 min 0 W/m 6,4 km/h (2 Bft) 97,87 %
13.10.2020 02:00 8,1 C 6,7 C 9,4 C 95 % 1015,7 hPa 0,0 l/m 0 min 0 min 0 W/m 6,4 km/h (2 Bft) 97,87 %
13.10.2020 02:02 8,1 C 6,7 C 9,4 C 95 % 1015,7 hPa 0,0 l/m 0 min 0 min 0 W/m 6,4 km/h (2 Bft) 97,87 %
13.10.2020 02:04 8,1 C 6,7 C 9,4 C 95 % 1015,6 hPa 0,0 l/m 0 min 0 min 0 W/m 6,4 km/h (2 Bft) 97,87 %
13.10.2020 02:06 8,0 C 6,7 C 9,4 C 95 % 1015,6 hPa 0,0 l/m 0 min 0 min 0 W/m 6,4 km/h (2 Bft) 97,83 %
13.10.2020 02:08 8,0 C 6,7 C 9,4 C 95 % 1015,6 hPa 0,0 l/m 0 min 0 min 0 W/m 12,9 km/h (3 Bft) 97,87 %
13.10.2020 02:10 8,0 C 6,7 C 9,4 C 95 % 1015,6 hPa 0,0 l/m 0 min 0 min 0 W/m 12,9 km/h (3 Bft) 97,87 %
13.10.2020 02:12 7,9 C 6,7 C 9,4 C 95 % 1015,6 hPa 0,0 l/m 0 min 0 min 0 W/m 6,4 km/h (2 Bft) 97,87 %
13.10.2020 02:14 7,9 C 6,7 C 9,4 C 95 % 1015,6 hPa 0,0 l/m 0 min 0 min 0 W/m 6,4 km/h (2 Bft) 93,62 %
13.10.2020 02:16 7,9 C 6,7 C 9,4 C 95 % 1015,5 hPa 0,0 l/m 0 min 0 min 0 W/m 12,9 km/h (3 Bft) 97,87 %
13.10.2020 02:18 7,9 C 6,7 C 9,4 C 96 % 1015,5 hPa 0,0 l/m 0 min 0 min 0 W/m 12,9 km/h (3 Bft) 97,83 %
13.10.2020 02:20 7,9 C 6,7 C 9,4 C 96 % 1015,4 hPa 0,0 l/m 0 min 0 min 0 W/m 6,4 km/h (2 Bft) 95,74 %
13.10.2020 02:22 7,9 C 6,7 C 9,4 C 96 % 1015,5 hPa 0,0 l/m 0 min 0 min 0 W/m 12,9 km/h (3 Bft) 97,87 %
13.10.2020 02:24 7,8 C 6,7 C 9,4 C 96 % 1015,5 hPa 0,0 l/m 0 min 0 min 0 W/m 12,9 km/h (3 Bft) 97,87 %
13.10.2020 02:26 7,8 C 6,7 C 9,4 C 96 % 1015,4 hPa 0,0 l/m 0 min 0 min 0 W/m 12,9 km/h (3 Bft) 97,87 %
13.10.2020 02:28 7,8 C 6,7 C 9,4 C 95 % 1015,4 hPa 0,0 l/m 0 min 0 min 0 W/m 3,2 km/h (1 Bft) 97,87 %
13.10.2020 02:30 7,8 C 6,7 C 9,4 C 95 % 1015,4 hPa 0,0 l/m 0 min 0 min 0 W/m 0,0 km/h (0 Bft) 95,65 %
13.10.2020 02:32 7,8 C 6,7 C 9,4 C 95 % 1015,3 hPa 0,0 l/m 0 min 0 min 0 W/m 0,0 km/h (0 Bft) 97,87 %
13.10.2020 02:34 7,8 C 6,7 C 9,4 C 95 % 1015,3 hPa 0,0 l/m 0 min 0 min 0 W/m 0,0 km/h (0 Bft) 97,87 %
13.10.2020 02:36 7,8 C 6,7 C 9,4 C 96 % 1015,3 hPa 0,0 l/m 0 min 0 min 0 W/m 6,4 km/h (2 Bft) 97,87 %
13.10.2020 02:38 7,8 C 6,7 C 9,4 C 96 % 1015,2 hPa 0,0 l/m 0 min 0 min 0 W/m 3,2 km/h (1 Bft) 97,87 %
13.10.2020 02:40 7,8 C 6,7 C 9,4 C 96 % 1015,3 hPa 0,0 l/m 0 min 0 min 0 W/m 3,2 km/h (1 Bft) 97,87 %
13.10.2020 02:42 7,7 C 6,7 C 9,4 C 96 % 1015,2 hPa 0,0 l/m 0 min 0 min 0 W/m 6,4 km/h (2 Bft) 95,65 %
13.10.2020 02:44 7,7 C 6,7 C 9,4 C 96 % 1015,1 hPa 0,0 l/m 0 min 0 min 0 W/m 6,4 km/h (2 Bft) 100,00 %
13.10.2020 02:46 7,7 C 6,7 C 9,4 C 96 % 1015,1 hPa 0,0 l/m 0 min 0 min 0 W/m 0,0 km/h (0 Bft) 100,00 %
13.10.2020 02:48 7,7 C 6,7 C 8,9 C 96 % 1015,1 hPa 0,0 l/m 0 min 0 min 0 W/m 6,4 km/h (2 Bft) 100,00 %
13.10.2020 02:50 7,7 C 6,7 C 9,4 C 96 % 1015,1 hPa 0,0 l/m 0 min 0 min 0 W/m 3,2 km/h (1 Bft) 100,00 %
13.10.2020 02:52 7,7 C 6,7 C 9,4 C 96 % 1015,0 hPa 0,0 l/m 0 min 0 min 0 W/m 6,4 km/h (2 Bft) 97,87 %
13.10.2020 02:54 7,7 C 6,7 C 8,9 C 96 % 1015,0 hPa 0,0 l/m 0 min 0 min 0 W/m 6,4 km/h (2 Bft) 97,83 %
13.10.2020 02:56 7,7 C 6,7 C 8,9 C 96 % 1014,9 hPa 0,0 l/m 0 min 0 min 0 W/m 6,4 km/h (2 Bft) 100,00 %
13.10.2020 02:58 7,6 C 6,7 C 8,9 C 96 % 1014,9 hPa 0,0 l/m 0 min 0 min 0 W/m 3,2 km/h (1 Bft) 100,00 %
13.10.2020 03:00 7,6 C 6,7 C 8,9 C 96 % 1015,0 hPa 0,0 l/m 0 min 0 min 0 W/m 0,0 km/h (0 Bft) 100,00 %
13.10.2020 03:02 7,6 C 6,7 C 8,9 C 96 % 1015,0 hPa 0,0 l/m 0 min 0 min 0 W/m 0,0 km/h (0 Bft) 100,00 %
13.10.2020 03:04 7,6 C 6,7 C 8,9 C 96 % 1014,9 hPa 0,0 l/m 0 min 0 min 0 W/m 0,0 km/h (0 Bft) 100,00 %
13.10.2020 03:06 7,6 C 6,7 C 8,9 C 96 % 1014,9 hPa 0,0 l/m 0 min 0 min 0 W/m 0,0 km/h (0 Bft) 100,00 %
13.10.2020 03:08 7,6 C 6,7 C 8,9 C 96 % 1015,0 hPa 0,0 l/m 0 min 0 min 0 W/m 3,2 km/h (1 Bft) 100,00 %
13.10.2020 03:10 7,6 C 6,7 C 8,9 C 96 % 1014,9 hPa 0,0 l/m 0 min 0 min 0 W/m 6,4 km/h (2 Bft) 100,00 %
13.10.2020 03:12 7,6 C 6,7 C 8,9 C 96 % 1014,9 hPa 0,0 l/m 0 min 0 min 0 W/m 6,4 km/h (2 Bft) 97,87 %
13.10.2020 03:14 7,6 C 6,7 C 8,9 C 96 % 1014,9 hPa 0,0 l/m 0 min 0 min 0 W/m 6,4 km/h (2 Bft) 100,00 %
13.10.2020 03:16 7,6 C 6,7 C 8,9 C 96 % 1014,9 hPa 0,0 l/m 0 min 0 min 0 W/m 3,2 km/h (1 Bft) 100,00 %
13.10.2020 03:18 7,5 C 6,7 C 8,9 C 96 % 1014,9 hPa 0,0 l/m 0 min 0 min 0 W/m 3,2 km/h (1 Bft) 97,87 %
13.10.2020 03:20 7,5 C 6,1 C 8,9 C 96 % 1014,8 hPa 0,0 l/m 0 min 0 min 0 W/m 3,2 km/h (1 Bft) 100,00 %
13.10.2020 03:22 7,5 C 6,1 C 8,9 C 96 % 1014,8 hPa 0,0 l/m 0 min 0 min 0 W/m 3,2 km/h (1 Bft) 100,00 %
13.10.2020 03:24 7,5 C 6,1 C 8,9 C 96 % 1014,8 hPa 0,0 l/m 0 min 0 min 0 W/m 3,2 km/h (1 Bft) 100,00 %
13.10.2020 03:26 7,4 C 6,7 C 8,9 C 96 % 1014,8 hPa 0,0 l/m 0 min 0 min 0 W/m 6,4 km/h (2 Bft) 100,00 %
13.10.2020 03:28 7,4 C 6,7 C 8,9 C 96 % 1014,7 hPa 0,0 l/m 0 min 0 min 0 W/m 12,9 km/h (3 Bft) 100,00 %
13.10.2020 03:30 7,4 C 6,7 C 8,9 C 96 % 1014,8 hPa 0,0 l/m 0 min 0 min 0 W/m 6,4 km/h (2 Bft) 100,00 %
13.10.2020 03:32 7,4 C 6,7 C 9,4 C 96 % 1014,8 hPa 0,0 l/m 0 min 0 min 0 W/m 6,4 km/h (2 Bft) 100,00 %
13.10.2020 03:34 7,4 C 6,7 C 8,9 C 96 % 1014,7 hPa 0,0 l/m 0 min 0 min 0 W/m 3,2 km/h (1 Bft) 97,87 %
13.10.2020 03:36 7,4 C 6,1 C 8,9 C 96 % 1014,7 hPa 0,0 l/m 0 min 0 min 0 W/m 6,4 km/h (2 Bft) 97,87 %
13.10.2020 03:38 7,4 C 6,1 C 8,9 C 96 % 1014,7 hPa 0,0 l/m 0 min 0 min 0 W/m 6,4 km/h (2 Bft) 95,74 %
13.10.2020 03:40 7,4 C 6,1 C 8,9 C 96 % 1014,6 hPa 0,0 l/m 0 min 0 min 0 W/m 3,2 km/h (1 Bft) 95,65 %
13.10.2020 03:42 7,4 C 6,1 C 8,9 C 96 % 1014,6 hPa 0,0 l/m 0 min 0 min 0 W/m 6,4 km/h (2 Bft) 93,62 %
13.10.2020 03:44 7,4 C 6,1 C 8,9 C 96 % 1014,6 hPa 0,0 l/m 0 min 0 min 0 W/m 0,0 km/h (0 Bft) 95,74 %
13.10.2020 03:46 7,3 C 6,1 C 8,9 C 96 % 1014,6 hPa 0,0 l/m 0 min 0 min 0 W/m 6,4 km/h (2 Bft) 95,74 %
13.10.2020 03:48 7,3 C 6,1 C 8,9 C 96 % 1014,5 hPa 0,0 l/m 0 min 0 min 0 W/m 12,9 km/h (3 Bft) 96,30 %
13.10.2020 03:50 7,3 C 6,1 C 8,9 C 96 % 1014,6 hPa 0,0 l/m 0 min 0 min 0 W/m 16,1 km/h (3 Bft) 93,62 %
13.10.2020 03:52 7,3 C 6,1 C 8,9 C 96 % 1014,5 hPa 0,0 l/m 0 min 0 min 0 W/m 12,9 km/h (3 Bft) 95,74 %
13.10.2020 03:54 7,3 C 6,1 C 8,9 C 96 % 1014,5 hPa 0,0 l/m 0 min 0 min 0 W/m 6,4 km/h (2 Bft) 95,74 %
13.10.2020 03:56 7,3 C 6,1 C 8,9 C 96 % 1014,5 hPa 0,0 l/m 0 min 0 min 0 W/m 6,4 km/h (2 Bft) 95,74 %
13.10.2020 03:58 7,3 C 6,1 C 8,9 C 96 % 1014,5 hPa 0,0 l/m 0 min 0 min 0 W/m 6,4 km/h (2 Bft) 93,48 %
13.10.2020 04:00 7,2 C 6,1 C 8,9 C 96 % 1014,4 hPa 0,0 l/m 0 min 0 min 0 W/m 6,4 km/h (2 Bft) 95,74 %
13.10.2020 04:02 7,2 C 6,1 C 8,9 C 96 % 1014,4 hPa 0,0 l/m 0 min 0 min 0 W/m 6,4 km/h (2 Bft) 100,00 %
13.10.2020 04:04 7,2 C 6,1 C 8,9 C 96 % 1014,4 hPa 0,0 l/m 0 min 0 min 0 W/m 12,9 km/h (3 Bft) 94,92 %
13.10.2020 04:06 7,2 C 6,1 C 8,9 C 96 % 1014,4 hPa 0,0 l/m 0 min 0 min 0 W/m 12,9 km/h (3 Bft) 97,14 %
13.10.2020 04:08 7,2 C 6,1 C 8,9 C 96 % 1014,4 hPa 0,0 l/m 0 min 0 min 0 W/m 12,9 km/h (3 Bft) 93,10 %
13.10.2020 04:10 7,2 C 6,1 C 8,9 C 96 % 1014,4 hPa 0,0 l/m 0 min 0 min 0 W/m 6,4 km/h (2 Bft) 94,44 %
13.10.2020 04:12 7,1 C 6,1 C 8,9 C 96 % 1014,4 hPa 0,0 l/m 0 min 0 min 0 W/m 12,9 km/h (3 Bft) 93,48 %
13.10.2020 04:14 7,1 C 6,1 C 8,9 C 96 % 1014,4 hPa 0,0 l/m 0 min 0 min 0 W/m 6,4 km/h (2 Bft) 95,83 %
13.10.2020 04:16 7,1 C 6,1 C 8,9 C 96 % 1014,3 hPa 0,0 l/m 0 min 0 min 0 W/m 6,4 km/h (2 Bft) 95,74 %
13.10.2020 04:18 7,1 C 6,1 C 8,9 C 96 % 1014,3 hPa 0,0 l/m 0 min 0 min 0 W/m 12,9 km/h (3 Bft) 93,62 %
13.10.2020 04:20 7,1 C 6,1 C 8,9 C 96 % 1014,4 hPa 0,0 l/m 0 min 0 min 0 W/m 12,9 km/h (3 Bft) 95,74 %
13.10.2020 04:22 7,1 C 6,1 C 8,9 C 96 % 1014,4 hPa 0,0 l/m 0 min 0 min 0 W/m 12,9 km/h (3 Bft) 95,74 %
13.10.2020 04:24 7,1 C 6,1 C 8,9 C 96 % 1014,4 hPa 0,0 l/m 0 min 0 min 0 W/m 6,4 km/h (2 Bft) 95,74 %
13.10.2020 04:26 7,0 C 6,1 C 8,9 C 96 % 1014,4 hPa 0,0 l/m 0 min 0 min 0 W/m 6,4 km/h (2 Bft) 95,65 %
13.10.2020 04:28 7,0 C 6,1 C 8,9 C 96 % 1014,4 hPa 0,0 l/m 0 min 0 min 0 W/m 6,4 km/h (2 Bft) 95,74 %
13.10.2020 04:30 7,0 C 6,1 C 8,9 C 96 % 1014,4 hPa 0,0 l/m 0 min 0 min 0 W/m 6,4 km/h (2 Bft) 93,62 %
13.10.2020 04:32 7,0 C 6,1 C 8,9 C 96 % 1014,4 hPa 0,0 l/m 0 min 0 min 0 W/m 6,4 km/h (2 Bft) 93,62 %
13.10.2020 04:34 6,9 C 6,1 C 8,9 C 96 % 1014,4 hPa 0,0 l/m 0 min 0 min 0 W/m 3,2 km/h (1 Bft) 93,62 %
13.10.2020 04:36 6,9 C 6,1 C 8,9 C 96 % 1014,3 hPa 0,0 l/m 0 min 0 min 0 W/m 6,4 km/h (2 Bft) 93,62 %
13.10.2020 04:38 6,9 C 6,1 C 8,9 C 96 % 1014,4 hPa 0,0 l/m 0 min 0 min 0 W/m 6,4 km/h (2 Bft) 95,65 %
13.10.2020 04:40 6,9 C 6,1 C 8,9 C 96 % 1014,3 hPa 0,0 l/m 0 min 0 min 0 W/m 6,4 km/h (2 Bft) 95,74 %
13.10.2020 04:42 6,9 C 6,1 C 8,9 C 96 % 1014,3 hPa 0,0 l/m 0 min 0 min 0 W/m 6,4 km/h (2 Bft) 95,74 %
13.10.2020 04:44 6,9 C 6,1 C 8,9 C 96 % 1014,3 hPa 0,0 l/m 0 min 0 min 0 W/m 6,4 km/h (2 Bft) 93,62 %
13.10.2020 04:46 6,9 C 6,1 C 8,9 C 96 % 1014,3 hPa 0,0 l/m 0 min 0 min 0 W/m 6,4 km/h (2 Bft) 95,74 %
13.10.2020 04:48 6,9 C 6,1 C 8,9 C 96 % 1014,3 hPa 0,0 l/m 0 min 0 min 0 W/m 3,2 km/h (1 Bft) 95,74 %
13.10.2020 04:50 6,9 C 6,1 C 8,9 C 96 % 1014,2 hPa 0,0 l/m 0 min 0 min 0 W/m 6,4 km/h (2 Bft) 95,65 %
13.10.2020 04:52 6,8 C 6,1 C 8,9 C 96 % 1014,1 hPa 0,0 l/m 0 min 0 min 0 W/m 6,4 km/h (2 Bft) 95,74 %
13.10.2020 04:54 6,8 C 6,1 C 8,9 C 96 % 1014,1 hPa 0,0 l/m 0 min 0 min 0 W/m 12,9 km/h (3 Bft) 97,87 %
13.10.2020 04:56 6,8 C 6,1 C 8,9 C 96 % 1014,1 hPa 0,0 l/m 0 min 0 min 0 W/m 6,4 km/h (2 Bft) 97,87 %
13.10.2020 04:58 6,8 C 6,1 C 8,9 C 96 % 1014,1 hPa 0,0 l/m 0 min 0 min 0 W/m 12,9 km/h (3 Bft) 97,87 %
13.10.2020 05:00 6,8 C 6,1 C 8,9 C 96 % 1014,1 hPa 0,0 l/m 0 min 0 min 0 W/m 6,4 km/h (2 Bft) 93,48 %
13.10.2020 05:02 6,8 C 6,1 C 8,9 C 97 % 1014,0 hPa 0,0 l/m 0 min 0 min 0 W/m 3,2 km/h (1 Bft) 93,62 %
13.10.2020 05:04 6,8 C 6,1 C 8,9 C 97 % 1014,1 hPa 0,0 l/m 0 min 0 min 0 W/m 6,4 km/h (2 Bft) 97,87 %
13.10.2020 05:06 6,8 C 6,1 C 8,9 C 97 % 1014,1 hPa 0,0 l/m 0 min 0 min 0 W/m 6,4 km/h (2 Bft) 97,87 %
13.10.2020 05:08 6,8 C 6,1 C 8,9 C 97 % 1014,0 hPa 0,0 l/m 0 min 0 min 0 W/m 12,9 km/h (3 Bft) 97,87 %
13.10.2020 05:10 6,8 C 6,1 C 8,9 C 97 % 1014,1 hPa 0,0 l/m 0 min 0 min 0 W/m 12,9 km/h (3 Bft) 95,74 %
13.10.2020 05:12 6,8 C 6,1 C 8,9 C 97 % 1014,0 hPa 0,0 l/m 0 min 0 min 0 W/m 16,1 km/h (3 Bft) 100,00 %
13.10.2020 05:14 6,8 C 6,1 C 8,9 C 97 % 1014,0 hPa 0,0 l/m 0 min 0 min 0 W/m 6,4 km/h (2 Bft) 100,00 %
13.10.2020 05:16 6,8 C 6,1 C 8,9 C 97 % 1014,0 hPa 0,0 l/m 0 min 0 min 0 W/m 6,4 km/h (2 Bft) 100,00 %
13.10.2020 05:18 6,8 C 6,1 C 8,9 C 97 % 1014,0 hPa 0,0 l/m 0 min 0 min 0 W/m 6,4 km/h (2 Bft) 100,00 %
13.10.2020 05:20 6,8 C 6,1 C 8,9 C 97 % 1014,0 hPa 0,0 l/m 0 min 0 min 0 W/m 6,4 km/h (2 Bft) 97,87 %
13.10.2020 05:22 6,8 C 6,1 C 8,9 C 97 % 1014,0 hPa 0,0 l/m 0 min 0 min 0 W/m 16,1 km/h (3 Bft) 95,74 %
13.10.2020 05:24 6,8 C 6,1 C 8,9 C 97 % 1014,0 hPa 0,0 l/m 0 min 0 min 0 W/m 6,4 km/h (2 Bft) 97,87 %
13.10.2020 05:26 6,8 C 6,1 C 8,9 C 97 % 1013,9 hPa 0,0 l/m 0 min 0 min 0 W/m 12,9 km/h (3 Bft) 100,00 %
13.10.2020 05:28 6,8 C 6,1 C 8,9 C 97 % 1014,0 hPa 0,0 l/m 0 min 0 min 0 W/m 6,4 km/h (2 Bft) 100,00 %
13.10.2020 05:30 6,8 C 6,1 C 8,9 C 97 % 1014,0 hPa 0,0 l/m 0 min 0 min 0 W/m 6,4 km/h (2 Bft) 97,87 %
13.10.2020 05:32 6,7 C 6,1 C 8,9 C 97 % 1014,0 hPa 0,0 l/m 0 min 0 min 0 W/m 12,9 km/h (3 Bft) 97,87 %
13.10.2020 05:34 6,7 C 6,1 C 8,9 C 97 % 1013,9 hPa 0,0 l/m 0 min 0 min 0 W/m 6,4 km/h (2 Bft) 100,00 %
13.10.2020 05:36 6,7 C 6,1 C 8,9 C 97 % 1013,9 hPa 0,0 l/m 0 min 0 min 0 W/m 12,9 km/h (3 Bft) 97,83 %
13.10.2020 05:38 6,7 C 6,1 C 8,9 C 97 % 1013,9 hPa 0,0 l/m 0 min 0 min 0 W/m 12,9 km/h (3 Bft) 97,87 %
13.10.2020 05:40 6,7 C 6,1 C 8,9 C 97 % 1013,9 hPa 0,0 l/m 0 min 0 min 0 W/m 3,2 km/h (1 Bft) 100,00 %
13.10.2020 05:42 6,7 C 6,1 C 8,9 C 97 % 1013,8 hPa 0,0 l/m 0 min 0 min 0 W/m 3,2 km/h (1 Bft) 97,87 %
13.10.2020 05:44 6,7 C 6,1 C 8,9 C 97 % 1013,8 hPa 0,0 l/m 0 min 0 min 0 W/m 12,9 km/h (3 Bft) 100,00 %
13.10.2020 05:46 6,7 C 6,1 C 8,9 C 97 % 1013,8 hPa 0,0 l/m 0 min 0 min 0 W/m 6,4 km/h (2 Bft) 97,87 %
13.10.2020 05:48 6,7 C 6,1 C 8,9 C 97 % 1013,7 hPa 0,0 l/m 0 min 0 min 0 W/m 6,4 km/h (2 Bft) 97,83 %
13.10.2020 05:50 6,7 C 6,1 C 8,9 C 97 % 1013,7 hPa 0,0 l/m 0 min 0 min 0 W/m 6,4 km/h (2 Bft) 100,00 %
13.10.2020 05:52 6,7 C 6,1 C 8,9 C 97 % 1013,7 hPa 0,0 l/m 0 min 0 min 0 W/m 6,4 km/h (2 Bft) 100,00 %
13.10.2020 05:54 6,7 C 6,1 C 8,9 C 97 % 1013,7 hPa 0,0 l/m 0 min 0 min 0 W/m 12,9 km/h (3 Bft) 100,00 %
13.10.2020 05:56 6,7 C 6,1 C 8,9 C 97 % 1013,7 hPa 0,0 l/m 0 min 0 min 0 W/m 12,9 km/h (3 Bft) 100,00 %
13.10.2020 05:58 6,7 C 6,1 C 8,9 C 97 % 1013,9 hPa 0,0 l/m 0 min 0 min 0 W/m 12,9 km/h (3 Bft) 97,87 %
13.10.2020 06:00 6,7 C 6,1 C 8,9 C 97 % 1013,9 hPa 0,0 l/m 0 min 0 min 0 W/m 12,9 km/h (3 Bft) 100,00 %
13.10.2020 06:02 6,7 C 6,1 C 8,9 C 97 % 1013,9 hPa 0,0 l/m 0 min 0 min 0 W/m 6,4 km/h (2 Bft) 52,38 %
13.10.2020 06:04 6,7 C 5,6 C 8,9 C 97 % 1013,8 hPa 0,0 l/m 0 min 0 min 0 W/m 12,9 km/h (3 Bft) 100,00 %
13.10.2020 06:08 6,7 C 5,6 C 8,9 C 97 % 1013,8 hPa 0,0 l/m 0 min 0 min 0 W/m 12,9 km/h (3 Bft) 98,94 %
13.10.2020 06:10 6,7 C 5,6 C 8,9 C 97 % 1013,8 hPa 0,0 l/m 0 min 0 min 0 W/m 6,4 km/h (2 Bft) 100,00 %
13.10.2020 06:12 6,7 C 5,6 C 8,9 C 97 % 1013,8 hPa 0,0 l/m 0 min 0 min 0 W/m 6,4 km/h (2 Bft) 100,00 %
13.10.2020 06:14 6,7 C 5,6 C 8,9 C 97 % 1013,8 hPa 0,0 l/m 0 min 0 min 0 W/m 6,4 km/h (2 Bft) 100,00 %
13.10.2020 06:16 6,7 C 5,6 C 8,9 C 97 % 1013,9 hPa 0,0 l/m 0 min 0 min 0 W/m 6,4 km/h (2 Bft) 97,87 %
13.10.2020 06:18 6,7 C 5,6 C 8,9 C 97 % 1013,8 hPa 0,0 l/m 0 min 0 min 0 W/m 19,3 km/h (3 Bft) 100,00 %
13.10.2020 06:20 6,6 C 5,6 C 8,9 C 97 % 1013,7 hPa 0,0 l/m 0 min 0 min 0 W/m 12,9 km/h (3 Bft) 100,00 %
13.10.2020 06:22 6,6 C 5,6 C 8,9 C 97 % 1013,8 hPa 0,0 l/m 0 min 0 min 0 W/m 12,9 km/h (3 Bft) 97,83 %
13.10.2020 06:24 6,6 C 5,6 C 8,9 C 97 % 1013,8 hPa 0,0 l/m 0 min 0 min 0 W/m 12,9 km/h (3 Bft) 100,00 %
13.10.2020 06:26 6,6 C 5,6 C 8,9 C 97 % 1013,7 hPa 0,0 l/m 0 min 0 min 0 W/m 12,9 km/h (3 Bft) 100,00 %
13.10.2020 06:28 6,6 C 5,6 C 8,9 C 97 % 1013,8 hPa 0,0 l/m 0 min 0 min 0 W/m 16,1 km/h (3 Bft) 100,00 %
13.10.2020 06:30 6,6 C 5,6 C 8,9 C 97 % 1013,8 hPa 0,0 l/m 0 min 0 min 0 W/m 12,9 km/h (3 Bft) 100,00 %
13.10.2020 06:32 6,6 C 5,6 C 8,9 C 97 % 1013,7 hPa 0,0 l/m 0 min 0 min 0 W/m 12,9 km/h (3 Bft) 100,00 %
13.10.2020 06:34 6,6 C 5,6 C 8,9 C 97 % 1013,7 hPa 0,0 l/m 0 min 0 min 0 W/m 16,1 km/h (3 Bft) 97,83 %
13.10.2020 06:36 6,6 C 5,6 C 8,9 C 97 % 1013,7 hPa 0,0 l/m 0 min 0 min 0 W/m 16,1 km/h (3 Bft) 97,87 %
13.10.2020 06:38 6,6 C 5,6 C 8,9 C 97 % 1013,6 hPa 0,0 l/m 0 min 0 min 0 W/m 12,9 km/h (3 Bft) 95,74 %
13.10.2020 06:40 6,6 C 5,6 C 8,9 C 97 % 1013,6 hPa 0,0 l/m 0 min 0 min 0 W/m 12,9 km/h (3 Bft) 97,87 %
13.10.2020 06:42 6,5 C 5,6 C 8,9 C 97 % 1013,6 hPa 0,0 l/m 0 min 0 min 0 W/m 12,9 km/h (3 Bft) 97,87 %
13.10.2020 06:44 6,5 C 5,6 C 8,9 C 97 % 1013,6 hPa 0,0 l/m 0 min 0 min 0 W/m 3,2 km/h (1 Bft) 93,62 %
13.10.2020 06:46 6,5 C 5,6 C 8,9 C 97 % 1013,6 hPa 0,0 l/m 0 min 0 min 0 W/m 16,1 km/h (3 Bft) 97,83 %
13.10.2020 06:48 6,5 C 5,6 C 8,9 C 97 % 1013,6 hPa 0,0 l/m 0 min 0 min 0 W/m 12,9 km/h (3 Bft) 97,83 %
13.10.2020 06:50 6,5 C 5,6 C 8,9 C 97 % 1013,6 hPa 0,0 l/m 0 min 0 min 0 W/m 6,4 km/h (2 Bft) 97,87 %
13.10.2020 06:52 6,5 C 5,6 C 8,9 C 97 % 1013,6 hPa 0,0 l/m 0 min 0 min 0 W/m 12,9 km/h (3 Bft) 97,87 %
13.10.2020 06:54 6,5 C 5,6 C 8,9 C 97 % 1013,6 hPa 0,0 l/m 0 min 0 min 0 W/m 12,9 km/h (3 Bft) 95,74 %
13.10.2020 06:56 6,5 C 5,6 C 8,9 C 97 % 1013,5 hPa 0,0 l/m 0 min 0 min 0 W/m 6,4 km/h (2 Bft) 97,83 %
13.10.2020 06:58 6,5 C 5,6 C 8,9 C 97 % 1013,5 hPa 0,0 l/m 0 min 0 min 0 W/m 6,4 km/h (2 Bft) 97,87 %
13.10.2020 07:00 6,5 C 5,6 C 8,9 C 97 % 1013,5 hPa 0,0 l/m 0 min 0 min 0 W/m 6,4 km/h (2 Bft) 93,62 %
13.10.2020 07:02 6,5 C 5,6 C 8,9 C 97 % 1013,5 hPa 0,0 l/m 0 min 0 min 0 W/m 6,4 km/h (2 Bft) 95,74 %
13.10.2020 07:04 6,5 C 5,6 C 8,9 C 97 % 1013,5 hPa 0,0 l/m 0 min 0 min 0 W/m 12,9 km/h (3 Bft) 93,62 %
13.10.2020 07:06 6,5 C 5,6 C 8,9 C 97 % 1013,6 hPa 0,0 l/m 0 min 0 min 0 W/m 6,4 km/h (2 Bft) 95,74 %
13.10.2020 07:08 6,5 C 5,6 C 8,9 C 97 % 1013,5 hPa 0,0 l/m 0 min 0 min 0 W/m 12,9 km/h (3 Bft) 95,65 %
13.10.2020 07:10 6,4 C 5,6 C 8,9 C 97 % 1013,6 hPa 0,0 l/m 0 min 0 min 0 W/m 12,9 km/h (3 Bft) 95,74 %
13.10.2020 07:12 6,4 C 5,6 C 8,9 C 97 % 1013,6 hPa 0,0 l/m 0 min 0 min 0 W/m 12,9 km/h (3 Bft) 95,74 %
13.10.2020 07:14 6,4 C 5,6 C 8,3 C 97 % 1013,5 hPa 0,0 l/m 0 min 0 min 0 W/m 12,9 km/h (3 Bft) 95,74 %
13.10.2020 07:16 6,4 C 5,6 C 8,3 C 97 % 1013,6 hPa 0,0 l/m 0 min 0 min 0 W/m 12,9 km/h (3 Bft) 93,62 %
13.10.2020 07:18 6,4 C 5,6 C 8,9 C 97 % 1013,6 hPa 0,0 l/m 0 min 0 min 0 W/m 12,9 km/h (3 Bft) 34,38 %
13.10.2020 07:20 6,4 C 5,6 C 8,9 C 97 % 1013,6 hPa 0,0 l/m 0 min 0 min 0 W/m 12,9 km/h (3 Bft) 93,48 %
13.10.2020 07:22 6,4 C 5,6 C 8,9 C 97 % 1013,6 hPa 0,0 l/m 0 min 0 min 0 W/m 12,9 km/h (3 Bft) 93,62 %
13.10.2020 07:24 6,4 C 5,6 C 8,9 C 97 % 1013,7 hPa 0,0 l/m 0 min 0 min 0 W/m 6,4 km/h (2 Bft) 95,74 %
13.10.2020 07:26 6,4 C 5,6 C 8,9 C 97 % 1013,6 hPa 0,0 l/m 0 min 0 min 0 W/m 12,9 km/h (3 Bft) 97,87 %
13.10.2020 07:28 6,4 C 5,6 C 8,9 C 97 % 1013,6 hPa 0,0 l/m 0 min 0 min 0 W/m 6,4 km/h (2 Bft) 97,87 %
13.10.2020 07:30 6,4 C 5,6 C 8,9 C 97 % 1013,7 hPa 0,0 l/m 0 min 0 min 0 W/m 12,9 km/h (3 Bft) 97,87 %
13.10.2020 07:32 6,4 C 5,6 C 8,9 C 97 % 1013,7 hPa 0,0 l/m 0 min 0 min 0 W/m 9,7 km/h (2 Bft) 95,65 %
13.10.2020 07:34 6,4 C 5,6 C 8,9 C 97 % 1013,7 hPa 0,0 l/m 0 min 0 min 0 W/m 12,9 km/h (3 Bft) 93,62 %
13.10.2020 07:36 6,3 C 5,6 C 8,9 C 98 % 1013,7 hPa 0,0 l/m 0 min 0 min 0 W/m 19,3 km/h (3 Bft) 97,87 %
13.10.2020 07:38 6,3 C 5,6 C 8,9 C 98 % 1013,7 hPa 0,0 l/m 0 min 0 min 0 W/m 12,9 km/h (3 Bft) 97,87 %
13.10.2020 07:40 6,3 C 5,6 C 8,9 C 98 % 1013,7 hPa 0,0 l/m 0 min 0 min 0 W/m 16,1 km/h (3 Bft) 97,87 %
13.10.2020 07:42 6,3 C 5,6 C 8,9 C 98 % 1013,6 hPa 0,0 l/m 0 min 0 min 0 W/m 12,9 km/h (3 Bft) 97,87 %
13.10.2020 07:44 6,3 C 5,6 C 8,9 C 98 % 1013,6 hPa 0,0 l/m 0 min 0 min 0 W/m 16,1 km/h (3 Bft) 100,00 %
13.10.2020 07:46 6,3 C 5,6 C 8,9 C 98 % 1013,7 hPa 0,0 l/m 0 min 0 min 0 W/m 12,9 km/h (3 Bft) 97,87 %
13.10.2020 07:48 6,3 C 5,6 C 8,9 C 98 % 1013,6 hPa 0,0 l/m 0 min 0 min 0 W/m 19,3 km/h (3 Bft) 100,00 %
13.10.2020 07:50 6,3 C 5,6 C 8,9 C 98 % 1013,6 hPa 0,0 l/m 0 min 0 min 0 W/m 19,3 km/h (3 Bft) 100,00 %
13.10.2020 07:52 6,3 C 5,6 C 8,9 C 98 % 1013,6 hPa 0,0 l/m 0 min 0 min 0 W/m 16,1 km/h (3 Bft) 100,00 %
13.10.2020 07:54 6,3 C 5,6 C 8,3 C 98 % 1013,6 hPa 0,0 l/m 0 min 0 min 0 W/m 19,3 km/h (3 Bft) 100,00 %
13.10.2020 07:56 6,3 C 5,6 C 8,3 C 98 % 1013,6 hPa 0,0 l/m 0 min 0 min 0 W/m 12,9 km/h (3 Bft) 100,00 %
13.10.2020 07:58 6,3 C 5,6 C 8,3 C 98 % 1013,6 hPa 0,0 l/m 0 min 0 min 0 W/m 12,9 km/h (3 Bft) 97,87 %
13.10.2020 08:00 6,3 C 5,6 C 8,3 C 98 % 1013,6 hPa 0,0 l/m 0 min 0 min 0 W/m 6,4 km/h (2 Bft) 97,87 %
13.10.2020 08:02 6,3 C 5,6 C 8,3 C 98 % 1013,6 hPa 0,0 l/m 0 min 0 min 0 W/m 6,4 km/h (2 Bft) 97,83 %
13.10.2020 08:04 6,3 C 5,6 C 8,9 C 98 % 1013,6 hPa 0,0 l/m 0 min 0 min 3 W/m 16,1 km/h (3 Bft) 97,87 %
13.10.2020 08:06 6,2 C 5,6 C 8,3 C 98 % 1013,6 hPa 0,0 l/m 0 min 0 min 5 W/m 16,1 km/h (3 Bft) 100,00 %
13.10.2020 08:08 6,2 C 5,6 C 8,3 C 98 % 1013,6 hPa 0,0 l/m 0 min 0 min 5 W/m 12,9 km/h (3 Bft) 97,87 %
13.10.2020 08:10 6,2 C 5,6 C 8,3 C 98 % 1013,7 hPa 0,0 l/m 0 min 0 min 5 W/m 16,1 km/h (3 Bft) 97,87 %
13.10.2020 08:12 6,2 C 5,6 C 8,3 C 98 % 1013,6 hPa 0,0 l/m 0 min 0 min 6 W/m 12,9 km/h (3 Bft) 95,74 %
13.10.2020 08:14 6,2 C 5,6 C 8,3 C 98 % 1013,6 hPa 0,0 l/m 0 min 0 min 7 W/m 12,9 km/h (3 Bft) 97,83 %
13.10.2020 08:16 6,2 C 5,6 C 8,3 C 98 % 1013,7 hPa 0,0 l/m 0 min 0 min 7 W/m 12,9 km/h (3 Bft) 95,74 %
13.10.2020 08:18 6,2 C 5,6 C 8,9 C 98 % 1013,7 hPa 0,0 l/m 0 min 0 min 7 W/m 12,9 km/h (3 Bft) 97,87 %
13.10.2020 08:20 6,2 C 5,6 C 8,9 C 98 % 1013,7 hPa 0,0 l/m 0 min 0 min 9 W/m 16,1 km/h (3 Bft) 97,87 %
13.10.2020 08:22 6,2 C 5,6 C 8,9 C 98 % 1013,6 hPa 0,0 l/m 0 min 0 min 9 W/m 16,1 km/h (3 Bft) 97,87 %
13.10.2020 08:24 6,2 C 5,6 C 8,9 C 98 % 1013,6 hPa 0,0 l/m 0 min 0 min 11 W/m 16,1 km/h (3 Bft) 97,83 %
13.10.2020 08:26 6,2 C 5,6 C 8,9 C 98 % 1013,6 hPa 0,0 l/m 0 min 0 min 12 W/m 12,9 km/h (3 Bft) 97,44 %
13.10.2020 08:28 6,2 C 5,6 C 8,9 C 98 % 1013,6 hPa 0,0 l/m 0 min 0 min 12 W/m 12,9 km/h (3 Bft) 97,87 %
13.10.2020 08:30 6,2 C 5,6 C 8,9 C 98 % 1013,6 hPa 0,0 l/m 0 min 0 min 12 W/m 16,1 km/h (3 Bft) 97,83 %
13.10.2020 08:32 6,2 C 5,6 C 8,9 C 98 % 1013,6 hPa 0,0 l/m 0 min 0 min 13 W/m 16,1 km/h (3 Bft) 95,74 %
13.10.2020 08:34 6,2 C 5,6 C 8,9 C 98 % 1013,6 hPa 0,0 l/m 0 min 0 min 15 W/m 19,3 km/h (3 Bft) 97,87 %
13.10.2020 08:36 6,2 C 5,6 C 8,9 C 98 % 1013,6 hPa 0,0 l/m 0 min 0 min 17 W/m 19,3 km/h (3 Bft) 91,49 %
13.10.2020 08:38 6,2 C 5,6 C 8,9 C 98 % 1013,6 hPa 0,0 l/m 0 min 0 min 20 W/m 12,9 km/h (3 Bft) 97,87 %
13.10.2020 08:40 6,2 C 5,6 C 8,9 C 98 % 1013,6 hPa 0,0 l/m 0 min 0 min 23 W/m 9,7 km/h (2 Bft) 95,74 %
13.10.2020 08:42 6,2 C 5,6 C 8,9 C 98 % 1013,6 hPa 0,0 l/m 0 min 0 min 25 W/m 12,9 km/h (3 Bft) 100,00 %
13.10.2020 08:44 6,2 C 5,6 C 8,9 C 98 % 1013,6 hPa 0,0 l/m 0 min 0 min 26 W/m 12,9 km/h (3 Bft) 95,74 %
13.10.2020 08:46 6,3 C 5,6 C 8,9 C 98 % 1013,6 hPa 0,0 l/m 0 min 0 min 28 W/m 12,9 km/h (3 Bft) 97,87 %
13.10.2020 08:48 6,3 C 6,1 C 8,9 C 98 % 1013,6 hPa 0,0 l/m 0 min 0 min 32 W/m 12,9 km/h (3 Bft) 97,87 %
13.10.2020 08:50 6,3 C 6,1 C 8,9 C 98 % 1013,7 hPa 0,0 l/m 0 min 0 min 36 W/m 6,4 km/h (2 Bft) 95,74 %
13.10.2020 08:52 6,3 C 6,1 C 8,9 C 98 % 1013,6 hPa 0,0 l/m 0 min 0 min 38 W/m 12,9 km/h (3 Bft) 97,83 %
13.10.2020 08:54 6,3 C 6,1 C 8,9 C 98 % 1013,7 hPa 0,0 l/m 0 min 0 min 40 W/m 6,4 km/h (2 Bft) 97,87 %
13.10.2020 08:56 6,3 C 6,1 C 8,9 C 98 % 1013,6 hPa 0,0 l/m 0 min 0 min 43 W/m 16,1 km/h (3 Bft) 95,74 %
13.10.2020 08:58 6,3 C 6,1 C 8,9 C 98 % 1013,6 hPa 0,0 l/m 0 min 0 min 45 W/m 12,9 km/h (3 Bft) 97,87 %
13.10.2020 09:00 6,3 C 6,1 C 8,9 C 98 % 1013,6 hPa 0,0 l/m 0 min 0 min 47 W/m 12,9 km/h (3 Bft) 97,87 %
13.10.2020 09:02 6,3 C 6,1 C 9,4 C 98 % 1013,6 hPa 0,0 l/m 0 min 0 min 50 W/m 12,9 km/h (3 Bft) 97,87 %
13.10.2020 09:04 6,3 C 6,1 C 9,4 C 98 % 1013,6 hPa 0,0 l/m 0 min 0 min 52 W/m 12,9 km/h (3 Bft) 97,83 %
13.10.2020 09:06 6,3 C 6,1 C 8,9 C 98 % 1013,6 hPa 0,0 l/m 0 min 0 min 55 W/m 9,7 km/h (2 Bft) 95,74 %
13.10.2020 09:08 6,4 C 6,1 C 8,9 C 98 % 1013,6 hPa 0,0 l/m 0 min 0 min 58 W/m 16,1 km/h (3 Bft) 95,74 %
13.10.2020 09:10 6,4 C 6,1 C 9,4 C 98 % 1013,6 hPa 0,0 l/m 0 min 0 min 61 W/m 16,1 km/h (3 Bft) 97,87 %
13.10.2020 09:12 6,4 C 6,7 C 9,4 C 98 % 1013,6 hPa 0,0 l/m 0 min 0 min 63 W/m 12,9 km/h (3 Bft) 93,62 %
13.10.2020 09:14 6,4 C 6,7 C 9,4 C 98 % 1013,6 hPa 0,0 l/m 0 min 0 min 66 W/m 19,3 km/h (3 Bft) 95,74 %
13.10.2020 09:16 6,4 C 6,7 C 9,4 C 98 % 1013,6 hPa 0,0 l/m 0 min 0 min 69 W/m 19,3 km/h (3 Bft) 100,00 %
13.10.2020 09:18 6,4 C 6,7 C 9,4 C 98 % 1013,7 hPa 0,0 l/m 0 min 0 min 72 W/m 16,1 km/h (3 Bft) 97,87 %
13.10.2020 09:20 6,5 C 6,7 C 9,4 C 98 % 1013,7 hPa 0,0 l/m 0 min 0 min 76 W/m 16,1 km/h (3 Bft) 100,00 %
13.10.2020 09:22 6,5 C 6,7 C 9,4 C 98 % 1013,7 hPa 0,0 l/m 0 min 0 min 79 W/m 12,9 km/h (3 Bft) 95,74 %
13.10.2020 09:24 6,5 C 6,7 C 9,4 C 98 % 1013,7 hPa 0,0 l/m 0 min 0 min 83 W/m 16,1 km/h (3 Bft) 97,87 %
13.10.2020 09:26 6,5 C 7,2 C 9,4 C 98 % 1013,7 hPa 0,0 l/m 0 min 0 min 85 W/m 19,3 km/h (3 Bft) 97,87 %
13.10.2020 09:28 6,6 C 7,2 C 9,4 C 98 % 1013,7 hPa 0,0 l/m 0 min 0 min 88 W/m 6,4 km/h (2 Bft) 97,83 %
13.10.2020 09:30 6,6 C 7,2 C 10,0 C 98 % 1013,7 hPa 0,0 l/m 0 min 0 min 90 W/m 6,4 km/h (2 Bft) 95,74 %
13.10.2020 09:32 6,6 C 7,2 C 10,0 C 98 % 1013,7 hPa 0,0 l/m 0 min 0 min 91 W/m 6,4 km/h (2 Bft) 93,62 %
13.10.2020 09:34 6,7 C 7,2 C 10,0 C 98 % 1013,7 hPa 0,0 l/m 0 min 0 min 94 W/m 12,9 km/h (3 Bft) 95,74 %
13.10.2020 09:36 6,7 C 7,2 C 10,0 C 98 % 1013,7 hPa 0,0 l/m 0 min 0 min 95 W/m 16,1 km/h (3 Bft) 89,36 %
13.10.2020 09:38 6,7 C 7,2 C 10,0 C 98 % 1013,7 hPa 0,0 l/m 0 min 0 min 95 W/m 6,4 km/h (2 Bft) 93,62 %
13.10.2020 09:40 6,8 C 7,2 C 10,0 C 98 % 1013,7 hPa 0,0 l/m 0 min 0 min 96 W/m 12,9 km/h (3 Bft) 91,30 %
13.10.2020 09:42 6,8 C 7,2 C 10,0 C 98 % 1013,7 hPa 0,0 l/m 0 min 0 min 97 W/m 16,1 km/h (3 Bft) 95,74 %
13.10.2020 09:44 6,8 C 7,8 C 10,0 C 98 % 1013,7 hPa 0,0 l/m 0 min 0 min 97 W/m 19,3 km/h (3 Bft) 91,49 %
13.10.2020 09:46 6,9 C 7,8 C 10,0 C 98 % 1013,7 hPa 0,0 l/m 0 min 0 min 97 W/m 12,9 km/h (3 Bft) 95,74 %
13.10.2020 09:48 6,9 C 7,8 C 10,6 C 98 % 1013,7 hPa 0,0 l/m 0 min 0 min 98 W/m 16,1 km/h (3 Bft) 95,74 %
13.10.2020 09:50 6,9 C 7,8 C 10,6 C 98 % 1013,7 hPa 0,0 l/m 0 min 0 min 100 W/m 12,9 km/h (3 Bft) 95,74 %
13.10.2020 09:52 7,0 C 7,8 C 10,6 C 98 % 1013,7 hPa 0,0 l/m 0 min 0 min 103 W/m 16,1 km/h (3 Bft) 95,65 %
13.10.2020 09:54 7,0 C 7,8 C 10,6 C 98 % 1013,7 hPa 0,0 l/m 0 min 0 min 107 W/m 12,9 km/h (3 Bft) 97,87 %
13.10.2020 09:56 7,1 C 7,8 C 10,6 C 98 % 1013,7 hPa 0,0 l/m 0 min 0 min 112 W/m 12,9 km/h (3 Bft) 93,62 %
13.10.2020 09:58 7,1 C 7,8 C 10,6 C 98 % 1013,7 hPa 0,0 l/m 0 min 0 min 114 W/m 16,1 km/h (3 Bft) 89,36 %
13.10.2020 10:00 7,1 C 8,3 C 10,6 C 98 % 1013,6 hPa 0,0 l/m 0 min 0 min 111 W/m 16,1 km/h (3 Bft) 95,74 %
13.10.2020 10:02 7,1 C 8,3 C 10,6 C 99 % 1013,7 hPa 0,0 l/m 0 min 0 min 111 W/m 12,9 km/h (3 Bft) 91,30 %
13.10.2020 10:04 7,2 C 8,3 C 10,6 C 99 % 1013,6 hPa 0,0 l/m 0 min 0 min 114 W/m 19,3 km/h (3 Bft) 89,36 %
13.10.2020 10:06 7,2 C 8,3 C 10,6 C 99 % 1013,7 hPa 0,0 l/m 0 min 0 min 119 W/m 16,1 km/h (3 Bft) 91,49 %
13.10.2020 10:08 7,2 C 8,3 C 10,6 C 99 % 1013,6 hPa 0,0 l/m 0 min 0 min 122 W/m 12,9 km/h (3 Bft) 95,74 %
13.10.2020 10:10 7,3 C 8,3 C 10,6 C 98 % 1013,7 hPa 0,0 l/m 0 min 0 min 125 W/m 12,9 km/h (3 Bft) 91,49 %
13.10.2020 10:12 7,3 C 8,3 C 10,6 C 98 % 1013,6 hPa 0,0 l/m 0 min 0 min 127 W/m 16,1 km/h (3 Bft) 97,87 %
13.10.2020 10:14 7,3 C 8,3 C 10,6 C 98 % 1013,6 hPa 0,0 l/m 0 min 0 min 128 W/m 12,9 km/h (3 Bft) 86,96 %
13.10.2020 10:16 7,4 C 8,3 C 10,6 C 98 % 1013,6 hPa 0,0 l/m 0 min 0 min 130 W/m 19,3 km/h (3 Bft) 87,23 %
13.10.2020 10:18 7,4 C 8,3 C 11,1 C 98 % 1013,6 hPa 0,0 l/m 0 min 0 min 134 W/m 19,3 km/h (3 Bft) 95,74 %
13.10.2020 10:20 7,5 C 8,3 C 11,1 C 98 % 1013,6 hPa 0,0 l/m 0 min 0 min 136 W/m 19,3 km/h (3 Bft) 97,87 %
13.10.2020 10:22 7,5 C 8,9 C 11,1 C 99 % 1013,7 hPa 0,0 l/m 0 min 0 min 139 W/m 12,9 km/h (3 Bft) 93,62 %
13.10.2020 10:24 7,6 C 8,9 C 11,1 C 99 % 1013,6 hPa 0,0 l/m 0 min 0 min 143 W/m 12,9 km/h (3 Bft) 89,36 %
13.10.2020 10:26 7,6 C 8,9 C 11,1 C 99 % 1013,6 hPa 0,0 l/m 0 min 0 min 148 W/m 16,1 km/h (3 Bft) 93,48 %
13.10.2020 10:28 7,6 C 9,4 C 11,1 C 99 % 1013,7 hPa 0,0 l/m 0 min 0 min 152 W/m 6,4 km/h (2 Bft) 95,74 %
13.10.2020 10:30 7,7 C 9,4 C 11,1 C 98 % 1013,6 hPa 0,0 l/m 0 min 0 min 157 W/m 3,2 km/h (1 Bft) 97,87 %
13.10.2020 10:32 7,7 C 9,4 C 11,1 C 98 % 1013,7 hPa 0,0 l/m 0 min 0 min 164 W/m 0,0 km/h (0 Bft) 89,36 %
13.10.2020 10:34 7,8 C 9,4 C 11,7 C 98 % 1013,6 hPa 0,0 l/m 0 min 0 min 174 W/m 22,5 km/h (4 Bft) 100,00 %
13.10.2020 10:36 7,8 C 9,4 C 11,1 C 98 % 1013,6 hPa 0,0 l/m 2 min 0 min 180 W/m 19,3 km/h (3 Bft) 100,00 %
13.10.2020 10:38 7,9 C 9,4 C 11,1 C 99 % 1013,7 hPa 0,0 l/m 2 min 0 min 186 W/m 19,3 km/h (3 Bft) 100,00 %
13.10.2020 10:40 7,9 C 9,4 C 11,1 C 99 % 1013,7 hPa 0,0 l/m 2 min 0 min 192 W/m 16,1 km/h (3 Bft) 100,00 %
13.10.2020 10:42 8,0 C 9,4 C 11,7 C 98 % 1013,7 hPa 0,0 l/m 2 min 0 min 200 W/m 6,4 km/h (2 Bft) 97,87 %
13.10.2020 10:44 8,1 C 10,0 C 11,7 C 98 % 1013,7 hPa 0,0 l/m 2 min 0 min 203 W/m 19,3 km/h (3 Bft) 100,00 %
13.10.2020 10:46 8,1 C 10,0 C 11,7 C 98 % 1013,7 hPa 0,0 l/m 2 min 0 min 206 W/m 12,9 km/h (3 Bft) 100,00 %
13.10.2020 10:48 8,1 C 10,0 C 11,7 C 98 % 1013,7 hPa 0,0 l/m 2 min 0 min 211 W/m 12,9 km/h (3 Bft) 100,00 %
13.10.2020 10:50 8,2 C 10,0 C 11,7 C 99 % 1013,7 hPa 0,0 l/m 2 min 0 min 214 W/m 16,1 km/h (3 Bft) 100,00 %
13.10.2020 10:52 8,3 C 10,0 C 11,7 C 98 % 1013,7 hPa 0,0 l/m 2 min 0 min 218 W/m 12,9 km/h (3 Bft) 100,00 %
13.10.2020 10:54 8,3 C 10,0 C 11,7 C 98 % 1013,7 hPa 0,0 l/m 2 min 0 min 218 W/m 19,3 km/h (3 Bft) 97,87 %
13.10.2020 10:56 8,3 C 10,0 C 11,7 C 98 % 1013,7 hPa 0,0 l/m 2 min 0 min 221 W/m 16,1 km/h (3 Bft) 100,00 %
13.10.2020 10:58 8,4 C 10,0 C 11,7 C 98 % 1013,7 hPa 0,0 l/m 2 min 0 min 230 W/m 16,1 km/h (3 Bft) 100,00 %
13.10.2020 11:00 8,4 C 10,6 C 12,2 C 98 % 1013,7 hPa 0,0 l/m 2 min 0 min 229 W/m 12,9 km/h (3 Bft) 100,00 %
13.10.2020 11:02 8,5 C 10,6 C 12,2 C 98 % 1013,7 hPa 0,0 l/m 2 min 0 min 231 W/m 19,3 km/h (3 Bft) 100,00 %
13.10.2020 11:04 8,6 C 10,6 C 12,2 C 98 % 1013,7 hPa 0,0 l/m 2 min 0 min 234 W/m 16,1 km/h (3 Bft) 100,00 %
13.10.2020 11:06 8,6 C 10,6 C 12,2 C 98 % 1013,7 hPa 0,0 l/m 2 min 0 min 242 W/m 25,7 km/h (4 Bft) 100,00 %
13.10.2020 11:08 8,7 C 10,6 C 12,2 C 98 % 1013,7 hPa 0,0 l/m 2 min 0 min 241 W/m 22,5 km/h (4 Bft) 100,00 %
13.10.2020 11:10 8,7 C 10,0 C 12,2 C 98 % 1013,7 hPa 0,0 l/m 2 min 0 min 221 W/m 22,5 km/h (4 Bft) 100,00 %
13.10.2020 11:12 8,7 C 10,0 C 12,2 C 98 % 1013,7 hPa 0,0 l/m 2 min 0 min 230 W/m 16,1 km/h (3 Bft) 100,00 %
13.10.2020 11:14 8,8 C 10,6 C 12,2 C 98 % 1013,8 hPa 0,0 l/m 2 min 0 min 224 W/m 16,1 km/h (3 Bft) 97,87 %
13.10.2020 11:16 8,8 C 10,6 C 12,2 C 98 % 1013,8 hPa 0,0 l/m 2 min 0 min 271 W/m 6,4 km/h (2 Bft) 100,00 %
13.10.2020 11:18 8,8 C 11,1 C 12,2 C 98 % 1013,7 hPa 0,0 l/m 2 min 0 min 257 W/m 22,5 km/h (4 Bft) 97,87 %
13.10.2020 11:20 8,9 C 11,7 C 12,2 C 97 % 1013,7 hPa 0,0 l/m 2 min 0 min 287 W/m 9,7 km/h (2 Bft) 100,00 %
13.10.2020 11:22 9,0 C 11,7 C 12,8 C 97 % 1013,7 hPa 0,0 l/m 2 min 0 min 284 W/m 12,9 km/h (3 Bft) 97,87 %
13.10.2020 11:24 9,1 C 12,2 C 12,8 C 97 % 1013,7 hPa 0,0 l/m 2 min 0 min 280 W/m 6,4 km/h (2 Bft) 97,83 %
13.10.2020 11:26 9,1 C 11,7 C 12,8 C 97 % 1013,7 hPa 0,0 l/m 2 min 0 min 300 W/m 19,3 km/h (3 Bft) 97,87 %
13.10.2020 11:28 9,2 C 11,7 C 12,2 C 97 % 1013,7 hPa 0,0 l/m 2 min 0 min 301 W/m 19,3 km/h (3 Bft) 97,87 %
13.10.2020 11:30 9,2 C 11,7 C 12,2 C 97 % 1013,7 hPa 0,0 l/m 2 min 0 min 310 W/m 22,5 km/h (4 Bft) 97,87 %
13.10.2020 11:32 9,2 C 11,7 C 12,2 C 96 % 1013,7 hPa 0,0 l/m 2 min 0 min 312 W/m 25,7 km/h (4 Bft) 97,87 %
13.10.2020 11:34 9,3 C 11,7 C 12,8 C 96 % 1013,6 hPa 0,0 l/m 2 min 0 min 325 W/m 19,3 km/h (3 Bft) 97,87 %
13.10.2020 11:36 9,3 C 11,7 C 12,8 C 96 % 1013,6 hPa 0,0 l/m 2 min 0 min 312 W/m 22,5 km/h (4 Bft) 97,83 %
13.10.2020 11:38 9,4 C 12,2 C 12,8 C 96 % 1013,5 hPa 0,0 l/m 2 min 0 min 321 W/m 16,1 km/h (3 Bft) 97,87 %
13.10.2020 11:40 9,4 C 12,2 C 12,8 C 95 % 1013,5 hPa 0,0 l/m 2 min 0 min 335 W/m 19,3 km/h (3 Bft) 97,87 %
13.10.2020 11:42 9,5 C 12,8 C 12,8 C 95 % 1013,5 hPa 0,0 l/m 2 min 0 min 341 W/m 19,3 km/h (3 Bft) 95,74 %
13.10.2020 11:44 9,6 C 12,2 C 12,8 C 95 % 1013,4 hPa 0,0 l/m 2 min 0 min 333 W/m 16,1 km/h (3 Bft) 95,74 %
13.10.2020 11:46 9,6 C 12,2 C 12,8 C 94 % 1013,4 hPa 0,0 l/m 2 min 0 min 369 W/m 25,7 km/h (4 Bft) 97,87 %
13.10.2020 11:48 9,7 C 12,8 C 12,8 C 94 % 1013,4 hPa 0,0 l/m 2 min 0 min 378 W/m 25,7 km/h (4 Bft) 95,65 %
13.10.2020 11:50 9,7 C 12,8 C 12,8 C 94 % 1013,4 hPa 0,0 l/m 2 min 0 min 391 W/m 22,5 km/h (4 Bft) 97,87 %
13.10.2020 11:52 9,8 C 13,3 C 12,8 C 93 % 1013,4 hPa 0,0 l/m 2 min 0 min 392 W/m 22,5 km/h (4 Bft) 95,74 %
13.10.2020 11:54 9,9 C 13,9 C 12,8 C 93 % 1013,4 hPa 0,0 l/m 2 min 0 min 388 W/m 19,3 km/h (3 Bft) 93,62 %
13.10.2020 11:56 9,9 C 13,9 C 12,8 C 93 % 1013,4 hPa 0,0 l/m 2 min 0 min 426 W/m 16,1 km/h (3 Bft) 95,74 %
13.10.2020 11:58 10,1 C 14,4 C 13,3 C 92 % 1013,4 hPa 0,0 l/m 2 min 0 min 425 W/m 22,5 km/h (4 Bft) 95,65 %
13.10.2020 12:00 10,1 C 14,4 C 13,3 C 92 % 1013,4 hPa 0,0 l/m 2 min 0 min 419 W/m 19,3 km/h (3 Bft) 93,62 %
13.10.2020 12:02 10,2 C 15,0 C 13,3 C 92 % 1013,3 hPa 0,0 l/m 2 min 0 min 420 W/m 16,1 km/h (3 Bft) 95,74 %
13.10.2020 12:04 10,3 C 15,0 C 13,3 C 92 % 1013,4 hPa 0,0 l/m 2 min 0 min 427 W/m 12,9 km/h (3 Bft) 97,87 %
13.10.2020 12:07 10,4 C 14,4 C 13,3 C 92 % 1013,3 hPa 0,0 l/m 3 min 0 min 423 W/m 16,1 km/h (3 Bft) 97,47 %
13.10.2020 12:08 10,5 C 14,4 C 13,3 C 91 % 1013,3 hPa 0,0 l/m 1 min 0 min 418 W/m 12,9 km/h (3 Bft) 91,30 %
13.10.2020 12:10 10,6 C 14,4 C 13,3 C 91 % 1013,3 hPa 0,0 l/m 2 min 0 min 423 W/m 22,5 km/h (4 Bft) 97,37 %
13.10.2020 12:12 10,6 C 14,4 C 13,3 C 90 % 1013,3 hPa 0,0 l/m 2 min 0 min 408 W/m 12,9 km/h (3 Bft) 97,87 %
13.10.2020 12:14 10,7 C 13,9 C 13,3 C 90 % 1013,3 hPa 0,0 l/m 2 min 0 min 377 W/m 25,7 km/h (4 Bft) 97,87 %
13.10.2020 12:16 10,7 C 13,9 C 13,3 C 89 % 1013,3 hPa 0,0 l/m 2 min 0 min 370 W/m 22,5 km/h (4 Bft) 95,74 %
13.10.2020 12:18 10,8 C 13,3 C 13,3 C 89 % 1013,3 hPa 0,0 l/m 2 min 0 min 352 W/m 25,7 km/h (4 Bft) 96,36 %
13.10.2020 12:20 10,8 C 13,3 C 13,3 C 88 % 1013,3 hPa 0,0 l/m 2 min 0 min 328 W/m 19,3 km/h (3 Bft) 97,37 %
13.10.2020 12:22 10,9 C 13,9 C 13,3 C 88 % 1013,3 hPa 0,0 l/m 2 min 0 min 357 W/m 16,1 km/h (3 Bft) 97,87 %
13.10.2020 12:24 10,9 C 14,4 C 13,3 C 88 % 1013,3 hPa 0,0 l/m 2 min 0 min 370 W/m 12,9 km/h (3 Bft) 100,00 %
13.10.2020 12:26 11,0 C 14,4 C 13,3 C 88 % 1013,3 hPa 0,0 l/m 2 min 0 min 375 W/m 16,1 km/h (3 Bft) 100,00 %
13.10.2020 12:28 11,1 C 15,0 C 13,9 C 88 % 1013,3 hPa 0,0 l/m 2 min 0 min 382 W/m 12,9 km/h (3 Bft) 100,00 %
13.10.2020 12:30 11,2 C 15,0 C 13,9 C 88 % 1013,3 hPa 0,0 l/m 2 min 0 min 392 W/m 16,1 km/h (3 Bft) 93,62 %
13.10.2020 12:32 11,3 C 15,6 C 13,9 C 88 % 1013,3 hPa 0,0 l/m 2 min 0 min 418 W/m 12,9 km/h (3 Bft) 100,00 %
13.10.2020 12:34 11,3 C 15,6 C 13,9 C 88 % 1013,3 hPa 0,0 l/m 2 min 0 min 437 W/m 16,1 km/h (3 Bft) 100,00 %
13.10.2020 12:36 11,4 C 15,6 C 13,9 C 88 % 1013,3 hPa 0,0 l/m 2 min 0 min 456 W/m 6,4 km/h (2 Bft) 100,00 %
13.10.2020 12:38 11,4 C 15,6 C 13,9 C 88 % 1013,2 hPa 0,0 l/m 2 min 0 min 470 W/m 16,1 km/h (3 Bft) 100,00 %
13.10.2020 12:40 11,6 C 15,6 C 13,9 C 87 % 1013,2 hPa 0,0 l/m 2 min 0 min 452 W/m 12,9 km/h (3 Bft) 100,00 %
13.10.2020 12:42 11,6 C 16,1 C 13,9 C 87 % 1013,3 hPa 0,0 l/m 2 min 0 min 412 W/m 12,9 km/h (3 Bft) 98,18 %
13.10.2020 12:44 11,7 C 15,6 C 13,9 C 87 % 1013,3 hPa 0,0 l/m 2 min 0 min 384 W/m 19,3 km/h (3 Bft) 100,00 %
13.10.2020 12:46 11,7 C 15,0 C 13,9 C 86 % 1013,2 hPa 0,0 l/m 2 min 0 min 393 W/m 22,5 km/h (4 Bft) 97,87 %
13.10.2020 12:48 11,8 C 15,0 C 13,9 C 86 % 1013,2 hPa 0,0 l/m 2 min 0 min 412 W/m 19,3 km/h (3 Bft) 100,00 %
13.10.2020 12:50 11,8 C 15,0 C 13,9 C 86 % 1013,3 hPa 0,0 l/m 2 min 0 min 398 W/m 16,1 km/h (3 Bft) 100,00 %
13.10.2020 12:52 11,9 C 15,0 C 13,9 C 85 % 1013,3 hPa 0,0 l/m 2 min 0 min 349 W/m 19,3 km/h (3 Bft) 100,00 %
13.10.2020 12:54 11,9 C 15,0 C 13,9 C 85 % 1013,2 hPa 0,0 l/m 2 min 0 min 343 W/m 12,9 km/h (3 Bft) 100,00 %
13.10.2020 12:56 12,0 C 14,4 C 13,9 C 85 % 1013,2 hPa 0,0 l/m 2 min 0 min 325 W/m 9,7 km/h (2 Bft) 97,30 %
13.10.2020 12:58 12,0 C 13,9 C 13,9 C 84 % 1013,2 hPa 0,0 l/m 2 min 0 min 318 W/m 12,9 km/h (3 Bft) 95,74 %
13.10.2020 13:00 12,1 C 13,9 C 13,9 C 84 % 1013,2 hPa 0,0 l/m 2 min 0 min 314 W/m 9,7 km/h (2 Bft) 100,00 %
13.10.2020 13:02 12,1 C 13,9 C 13,9 C 84 % 1013,2 hPa 0,0 l/m 2 min 0 min 329 W/m 12,9 km/h (3 Bft) 98,00 %
13.10.2020 13:04 12,1 C 14,4 C 14,4 C 84 % 1013,1 hPa 0,0 l/m 2 min 0 min 332 W/m 12,9 km/h (3 Bft) 97,83 %
13.10.2020 13:06 12,1 C 14,4 C 14,4 C 84 % 1013,1 hPa 0,0 l/m 2 min 0 min 356 W/m 19,3 km/h (3 Bft) 97,37 %
13.10.2020 13:08 12,1 C 14,4 C 14,4 C 84 % 1013,1 hPa 0,0 l/m 2 min 0 min 365 W/m 19,3 km/h (3 Bft) 100,00 %
13.10.2020 13:10 12,1 C 15,0 C 14,4 C 84 % 1013,1 hPa 0,0 l/m 2 min 0 min 381 W/m 16,1 km/h (3 Bft) 100,00 %
13.10.2020 13:12 12,2 C 15,0 C 14,4 C 83 % 1013,1 hPa 0,0 l/m 2 min 0 min 428 W/m 22,5 km/h (4 Bft) 97,87 %
13.10.2020 13:14 12,2 C 15,0 C 14,4 C 83 % 1013,1 hPa 0,0 l/m 2 min 0 min 429 W/m 16,1 km/h (3 Bft) 95,74 %
13.10.2020 13:16 12,2 C 15,0 C 14,4 C 82 % 1013,1 hPa 0,0 l/m 2 min 0 min 403 W/m 22,5 km/h (4 Bft) 98,11 %
13.10.2020 13:18 12,2 C 15,0 C 14,4 C 82 % 1013,1 hPa 0,0 l/m 2 min 0 min 372 W/m 12,9 km/h (3 Bft) 100,00 %
13.10.2020 13:20 12,3 C 15,0 C 14,4 C 82 % 1013,0 hPa 0,0 l/m 2 min 0 min 357 W/m 12,9 km/h (3 Bft) 97,87 %
13.10.2020 13:22 12,3 C 14,4 C 14,4 C 82 % 1013,1 hPa 0,0 l/m 2 min 0 min 348 W/m 12,9 km/h (3 Bft) 97,87 %
13.10.2020 13:24 12,4 C 15,0 C 14,4 C 82 % 1013,1 hPa 0,0 l/m 2 min 0 min 338 W/m 9,7 km/h (2 Bft) 100,00 %
13.10.2020 13:26 12,4 C 14,4 C 14,4 C 82 % 1013,1 hPa 0,0 l/m 2 min 0 min 342 W/m 19,3 km/h (3 Bft) 100,00 %
13.10.2020 13:28 12,4 C 14,4 C 14,4 C 82 % 1013,0 hPa 0,0 l/m 2 min 0 min 320 W/m 12,9 km/h (3 Bft) 97,37 %
13.10.2020 13:30 12,5 C 14,4 C 14,4 C 82 % 1013,0 hPa 0,0 l/m 2 min 0 min 313 W/m 12,9 km/h (3 Bft) 97,87 %
13.10.2020 13:32 12,5 C 14,4 C 14,4 C 82 % 1013,1 hPa 0,0 l/m 2 min 0 min 303 W/m 12,9 km/h (3 Bft) 98,11 %
13.10.2020 13:34 12,6 C 13,9 C 15,0 C 82 % 1013,0 hPa 0,0 l/m 2 min 0 min 290 W/m 22,5 km/h (4 Bft) 96,00 %
13.10.2020 13:36 12,6 C 13,9 C 15,0 C 81 % 1013,0 hPa 0,0 l/m 2 min 0 min 285 W/m 16,1 km/h (3 Bft) 97,30 %
13.10.2020 13:38 12,6 C 13,9 C 15,0 C 81 % 1013,0 hPa 0,0 l/m 2 min 0 min 281 W/m 6,4 km/h (2 Bft) 95,74 %
13.10.2020 13:40 12,6 C 13,9 C 15,0 C 81 % 1013,0 hPa 0,0 l/m 2 min 0 min 279 W/m 9,7 km/h (2 Bft) 95,74 %
13.10.2020 13:42 12,6 C 14,4 C 15,0 C 81 % 1013,0 hPa 0,0 l/m 2 min 0 min 286 W/m 6,4 km/h (2 Bft) 96,23 %
13.10.2020 13:44 12,6 C 13,9 C 15,0 C 81 % 1013,0 hPa 0,0 l/m 2 min 0 min 286 W/m 16,1 km/h (3 Bft) 95,74 %
13.10.2020 13:46 12,6 C 14,4 C 14,4 C 81 % 1013,0 hPa 0,0 l/m 2 min 0 min 287 W/m 12,9 km/h (3 Bft) 92,00 %
13.10.2020 13:48 12,7 C 13,9 C 15,0 C 81 % 1013,0 hPa 0,0 l/m 2 min 0 min 290 W/m 12,9 km/h (3 Bft) 95,74 %
13.10.2020 13:50 12,7 C 14,4 C 15,0 C 81 % 1013,0 hPa 0,0 l/m 2 min 0 min 300 W/m 9,7 km/h (2 Bft) 94,59 %
13.10.2020 13:52 12,7 C 14,4 C 15,0 C 81 % 1012,9 hPa 0,0 l/m 2 min 0 min 296 W/m 6,4 km/h (2 Bft) 93,62 %
13.10.2020 13:54 12,7 C 14,4 C 15,0 C 81 % 1012,9 hPa 0,0 l/m 2 min 0 min 281 W/m 0,0 km/h (0 Bft) 93,62 %
13.10.2020 13:56 12,8 C 14,4 C 15,0 C 81 % 1012,9 hPa 0,0 l/m 2 min 0 min 282 W/m 6,4 km/h (2 Bft) 93,48 %
13.10.2020 13:58 12,8 C 14,4 C 14,4 C 81 % 1012,9 hPa 0,0 l/m 2 min 0 min 276 W/m 12,9 km/h (3 Bft) 92,59 %
13.10.2020 14:00 12,8 C 14,4 C 14,4 C 81 % 1012,9 hPa 0,0 l/m 2 min 0 min 269 W/m 12,9 km/h (3 Bft) 96,00 %
13.10.2020 14:02 12,8 C 13,9 C 14,4 C 80 % 1012,8 hPa 0,0 l/m 2 min 0 min 260 W/m 16,1 km/h (3 Bft) 91,89 %
13.10.2020 14:04 12,8 C 13,9 C 14,4 C 80 % 1012,8 hPa 0,0 l/m 2 min 0 min 258 W/m 19,3 km/h (3 Bft) 93,62 %
13.10.2020 14:06 12,8 C 13,9 C 14,4 C 80 % 1012,8 hPa 0,0 l/m 2 min 0 min 254 W/m 12,9 km/h (3 Bft) 94,34 %
13.10.2020 14:08 12,8 C 14,4 C 15,0 C 80 % 1012,8 hPa 0,0 l/m 2 min 0 min 250 W/m 6,4 km/h (2 Bft) 94,00 %
13.10.2020 14:10 12,8 C 14,4 C 15,0 C 80 % 1012,8 hPa 0,0 l/m 2 min 0 min 248 W/m 12,9 km/h (3 Bft) 95,74 %
13.10.2020 14:12 12,9 C 13,9 C 15,0 C 81 % 1012,8 hPa 0,0 l/m 0 min 0 min 244 W/m 12,9 km/h (3 Bft) 91,89 %
13.10.2020 14:14 12,9 C 14,4 C 15,0 C 81 % 1012,8 hPa 0,0 l/m 0 min 0 min 242 W/m 6,4 km/h (2 Bft) 95,74 %
13.10.2020 14:16 12,9 C 14,4 C 15,0 C 81 % 1012,8 hPa 0,0 l/m 0 min 0 min 242 W/m 0,0 km/h (0 Bft) 90,57 %
13.10.2020 14:18 12,9 C 13,9 C 15,0 C 81 % 1012,8 hPa 0,0 l/m 0 min 0 min 243 W/m 19,3 km/h (3 Bft) 96,00 %
13.10.2020 14:20 12,9 C 13,9 C 15,0 C 80 % 1012,7 hPa 0,0 l/m 2 min 0 min 247 W/m 19,3 km/h (3 Bft) 97,30 %
13.10.2020 14:22 12,9 C 13,9 C 14,4 C 79 % 1012,7 hPa 0,0 l/m 2 min 0 min 253 W/m 22,5 km/h (4 Bft) 95,74 %
13.10.2020 14:24 12,9 C 13,9 C 14,4 C 79 % 1012,7 hPa 0,0 l/m 2 min 0 min 263 W/m 16,1 km/h (3 Bft) 96,30 %
13.10.2020 14:26 12,9 C 14,4 C 14,4 C 79 % 1012,8 hPa 0,0 l/m 2 min 0 min 265 W/m 6,4 km/h (2 Bft) 95,92 %
13.10.2020 14:28 12,9 C 14,4 C 14,4 C 79 % 1012,8 hPa 0,0 l/m 2 min 0 min 269 W/m 12,9 km/h (3 Bft) 97,37 %
13.10.2020 14:30 13,0 C 14,4 C 14,4 C 79 % 1012,8 hPa 0,0 l/m 2 min 0 min 267 W/m 16,1 km/h (3 Bft) 97,83 %
13.10.2020 14:32 13,0 C 13,9 C 14,4 C 79 % 1012,7 hPa 0,0 l/m 2 min 0 min 273 W/m 22,5 km/h (4 Bft) 98,15 %
13.10.2020 14:34 13,0 C 14,4 C 15,0 C 79 % 1012,7 hPa 0,0 l/m 2 min 0 min 265 W/m 6,4 km/h (2 Bft) 98,00 %
13.10.2020 14:36 13,0 C 14,4 C 15,0 C 79 % 1012,7 hPa 0,0 l/m 2 min 0 min 262 W/m 0,0 km/h (0 Bft) 100,00 %
13.10.2020 14:38 13,1 C 14,4 C 15,0 C 79 % 1012,6 hPa 0,0 l/m 2 min 0 min 262 W/m 12,9 km/h (3 Bft) 100,00 %
13.10.2020 14:40 13,1 C 14,4 C 15,0 C 79 % 1012,6 hPa 0,0 l/m 2 min 0 min 266 W/m 16,1 km/h (3 Bft) 100,00 %
13.10.2020 14:42 13,1 C 14,4 C 15,0 C 79 % 1012,7 hPa 0,0 l/m 2 min 0 min 270 W/m 12,9 km/h (3 Bft) 100,00 %
13.10.2020 14:44 13,1 C 14,4 C 15,0 C 79 % 1012,7 hPa 0,0 l/m 2 min 0 min 273 W/m 16,1 km/h (3 Bft) 98,15 %
13.10.2020 14:46 13,1 C 14,4 C 15,0 C 79 % 1012,7 hPa 0,0 l/m 2 min 0 min 277 W/m 19,3 km/h (3 Bft) 100,00 %
13.10.2020 14:48 13,1 C 15,0 C 15,0 C 78 % 1012,7 hPa 0,0 l/m 2 min 0 min 283 W/m 12,9 km/h (3 Bft) 97,30 %
13.10.2020 14:50 13,2 C 14,4 C 15,0 C 79 % 1012,6 hPa 0,0 l/m 2 min 0 min 283 W/m 16,1 km/h (3 Bft) 100,00 %
13.10.2020 14:52 13,2 C 14,4 C 15,0 C 79 % 1012,7 hPa 0,0 l/m 2 min 0 min 241 W/m 16,1 km/h (3 Bft) 100,00 %
13.10.2020 14:54 13,2 C 14,4 C 15,0 C 79 % 1012,7 hPa 0,0 l/m 2 min 0 min 281 W/m 16,1 km/h (3 Bft) 98,11 %
13.10.2020 14:56 13,2 C 14,4 C 15,0 C 79 % 1012,7 hPa 0,0 l/m 2 min 0 min 252 W/m 19,3 km/h (3 Bft) 100,00 %
13.10.2020 14:58 13,3 C 14,4 C 15,0 C 78 % 1012,7 hPa 0,0 l/m 2 min 0 min 236 W/m 12,9 km/h (3 Bft) 100,00 %
13.10.2020 15:00 13,3 C 14,4 C 15,0 C 79 % 1012,7 hPa 0,0 l/m 2 min 0 min 256 W/m 12,9 km/h (3 Bft) 97,87 %
13.10.2020 15:02 13,3 C 14,4 C 15,0 C 79 % 1012,8 hPa 0,0 l/m 2 min 0 min 247 W/m 16,1 km/h (3 Bft) 98,11 %
13.10.2020 15:04 13,3 C 14,4 C 15,0 C 79 % 1012,8 hPa 0,0 l/m 2 min 0 min 240 W/m 16,1 km/h (3 Bft) 97,87 %
13.10.2020 15:06 13,3 C 14,4 C 14,4 C 79 % 1012,8 hPa 0,0 l/m 0 min 0 min 216 W/m 12,9 km/h (3 Bft) 100,00 %
13.10.2020 15:08 13,3 C 14,4 C 14,4 C 78 % 1012,8 hPa 0,0 l/m 2 min 0 min 242 W/m 19,3 km/h (3 Bft) 100,00 %
13.10.2020 15:10 13,3 C 13,9 C 14,4 C 78 % 1012,8 hPa 0,0 l/m 0 min 0 min 211 W/m 16,1 km/h (3 Bft) 97,87 %
13.10.2020 15:12 13,3 C 13,9 C 14,4 C 78 % 1012,8 hPa 0,0 l/m 2 min 0 min 225 W/m 19,3 km/h (3 Bft) 97,30 %
13.10.2020 15:14 13,3 C 13,9 C 14,4 C 78 % 1012,8 hPa 0,0 l/m 2 min 0 min 221 W/m 22,5 km/h (4 Bft) 100,00 %
13.10.2020 15:16 13,3 C 13,9 C 14,4 C 78 % 1012,9 hPa 0,0 l/m 2 min 0 min 238 W/m 19,3 km/h (3 Bft) 98,11 %
13.10.2020 15:18 13,3 C 13,9 C 14,4 C 77 % 1012,9 hPa 0,0 l/m 2 min 0 min 233 W/m 22,5 km/h (4 Bft) 100,00 %
13.10.2020 15:20 13,3 C 13,9 C 14,4 C 77 % 1012,8 hPa 0,0 l/m 2 min 0 min 253 W/m 16,1 km/h (3 Bft) 97,87 %
13.10.2020 15:22 13,3 C 14,4 C 14,4 C 77 % 1012,8 hPa 0,0 l/m 2 min 0 min 263 W/m 16,1 km/h (3 Bft) 100,00 %
13.10.2020 15:24 13,3 C 14,4 C 14,4 C 77 % 1012,8 hPa 0,0 l/m 2 min 0 min 286 W/m 22,5 km/h (4 Bft) 100,00 %
13.10.2020 15:26 13,3 C 15,0 C 14,4 C 77 % 1012,7 hPa 0,0 l/m 2 min 0 min 306 W/m 19,3 km/h (3 Bft) 97,87 %
13.10.2020 15:28 13,3 C 15,6 C 14,4 C 77 % 1012,7 hPa 0,0 l/m 2 min 0 min 317 W/m 16,1 km/h (3 Bft) 100,00 %
13.10.2020 15:30 13,3 C 15,6 C 14,4 C 77 % 1012,6 hPa 0,0 l/m 2 min 0 min 320 W/m 22,5 km/h (4 Bft) 100,00 %
13.10.2020 15:32 13,4 C 15,6 C 15,0 C 77 % 1012,6 hPa 0,0 l/m 2 min 0 min 311 W/m 16,1 km/h (3 Bft) 100,00 %
13.10.2020 15:34 13,4 C 15,0 C 15,0 C 76 % 1012,6 hPa 0,0 l/m 2 min 0 min 289 W/m 16,1 km/h (3 Bft) 100,00 %
13.10.2020 15:36 13,4 C 15,6 C 15,0 C 76 % 1012,6 hPa 0,0 l/m 2 min 0 min 285 W/m 16,1 km/h (3 Bft) 100,00 %
13.10.2020 15:38 13,4 C 15,0 C 15,0 C 76 % 1012,6 hPa 0,0 l/m 2 min 0 min 268 W/m 19,3 km/h (3 Bft) 100,00 %
13.10.2020 15:40 13,4 C 15,0 C 15,0 C 76 % 1012,6 hPa 0,0 l/m 2 min 0 min 264 W/m 6,4 km/h (2 Bft) 100,00 %
13.10.2020 15:42 13,5 C 15,0 C 14,4 C 76 % 1012,6 hPa 0,0 l/m 2 min 0 min 257 W/m 19,3 km/h (3 Bft) 100,00 %
13.10.2020 15:44 13,5 C 14,4 C 14,4 C 76 % 1012,6 hPa 0,0 l/m 2 min 0 min 258 W/m 19,3 km/h (3 Bft) 100,00 %
13.10.2020 15:46 13,6 C 15,0 C 14,4 C 76 % 1012,6 hPa 0,0 l/m 2 min 0 min 266 W/m 3,2 km/h (1 Bft) 100,00 %
13.10.2020 15:48 13,6 C 15,0 C 15,0 C 77 % 1012,6 hPa 0,0 l/m 2 min 0 min 276 W/m 9,7 km/h (2 Bft) 100,00 %
13.10.2020 15:50 13,6 C 15,0 C 15,0 C 77 % 1012,6 hPa 0,0 l/m 2 min 0 min 277 W/m 16,1 km/h (3 Bft) 98,11 %
13.10.2020 15:52 13,6 C 15,0 C 14,4 C 76 % 1012,6 hPa 0,0 l/m 2 min 0 min 266 W/m 16,1 km/h (3 Bft) 100,00 %
13.10.2020 15:54 13,6 C 14,4 C 14,4 C 76 % 1012,6 hPa 0,0 l/m 2 min 0 min 249 W/m 16,1 km/h (3 Bft) 100,00 %
13.10.2020 15:56 13,7 C 14,4 C 14,4 C 76 % 1012,6 hPa 0,0 l/m 2 min 0 min 185 W/m 19,3 km/h (3 Bft) 100,00 %
13.10.2020 15:58 13,7 C 14,4 C 14,4 C 76 % 1012,6 hPa 0,0 l/m 2 min 0 min 218 W/m 19,3 km/h (3 Bft) 100,00 %
13.10.2020 16:00 13,7 C 14,4 C 14,4 C 76 % 1012,6 hPa 0,0 l/m 2 min 0 min 220 W/m 16,1 km/h (3 Bft) 100,00 %
13.10.2020 16:02 13,7 C 14,4 C 14,4 C 76 % 1012,6 hPa 0,0 l/m 2 min 0 min 217 W/m 12,9 km/h (3 Bft) 100,00 %
13.10.2020 16:04 13,7 C 13,9 C 14,4 C 76 % 1012,6 hPa 0,0 l/m 2 min 0 min 194 W/m 19,3 km/h (3 Bft) 100,00 %
13.10.2020 16:06 13,7 C 13,9 C 14,4 C 76 % 1012,6 hPa 0,0 l/m 2 min 0 min 192 W/m 3,2 km/h (1 Bft) 97,87 %
13.10.2020 16:08 13,7 C 13,9 C 14,4 C 77 % 1012,6 hPa 0,0 l/m 2 min 0 min 190 W/m 6,4 km/h (2 Bft) 95,74 %
13.10.2020 16:10 13,7 C 13,9 C 14,4 C 77 % 1012,6 hPa 0,0 l/m 2 min 0 min 186 W/m 12,9 km/h (3 Bft) 97,87 %
13.10.2020 16:12 13,6 C 13,9 C 13,9 C 77 % 1012,6 hPa 0,0 l/m 0 min 0 min 162 W/m 9,7 km/h (2 Bft) 98,18 %
13.10.2020 16:14 13,6 C 13,3 C 13,9 C 77 % 1012,7 hPa 0,0 l/m 0 min 0 min 161 W/m 12,9 km/h (3 Bft) 97,37 %
13.10.2020 16:16 13,6 C 13,3 C 13,9 C 77 % 1012,7 hPa 0,0 l/m 0 min 0 min 149 W/m 9,7 km/h (2 Bft) 97,87 %
13.10.2020 16:18 13,6 C 13,3 C 13,9 C 77 % 1012,7 hPa 0,0 l/m 0 min 0 min 158 W/m 16,1 km/h (3 Bft) 97,87 %
13.10.2020 16:20 13,6 C 13,3 C 13,9 C 77 % 1012,7 hPa 0,0 l/m 0 min 0 min 153 W/m 9,7 km/h (2 Bft) 92,86 %
13.10.2020 16:22 13,5 C 13,3 C 13,9 C 77 % 1012,8 hPa 0,0 l/m 0 min 0 min 152 W/m 9,7 km/h (2 Bft) 94,74 %
13.10.2020 16:24 13,4 C 12,8 C 13,9 C 77 % 1012,7 hPa 0,0 l/m 0 min 0 min 149 W/m 12,9 km/h (3 Bft) 91,49 %
13.10.2020 16:26 13,4 C 12,8 C 13,9 C 76 % 1012,6 hPa 0,0 l/m 0 min 0 min 140 W/m 12,9 km/h (3 Bft) 93,48 %
13.10.2020 16:28 13,3 C 12,8 C 13,3 C 77 % 1012,7 hPa 0,0 l/m 0 min 0 min 132 W/m 12,9 km/h (3 Bft) 94,64 %
13.10.2020 16:30 13,2 C 12,8 C 13,3 C 77 % 1012,7 hPa 0,0 l/m 0 min 0 min 131 W/m 12,9 km/h (3 Bft) 91,49 %
13.10.2020 16:32 13,2 C 12,8 C 13,3 C 77 % 1012,7 hPa 0,0 l/m 0 min 0 min 125 W/m 12,9 km/h (3 Bft) 94,74 %
13.10.2020 16:34 13,1 C 12,8 C 13,3 C 77 % 1012,7 hPa 0,0 l/m 0 min 0 min 123 W/m 12,9 km/h (3 Bft) 95,74 %
13.10.2020 16:36 13,1 C 12,8 C 13,3 C 77 % 1012,7 hPa 0,0 l/m 0 min 0 min 123 W/m 12,9 km/h (3 Bft) 91,49 %
13.10.2020 16:38 13,1 C 12,8 C 13,3 C 77 % 1012,7 hPa 0,0 l/m 0 min 0 min 122 W/m 12,9 km/h (3 Bft) 95,65 %
13.10.2020 16:40 13,0 C 12,8 C 13,3 C 77 % 1012,7 hPa 0,0 l/m 0 min 0 min 122 W/m 16,1 km/h (3 Bft) 95,74 %
13.10.2020 16:42 13,0 C 12,8 C 13,3 C 77 % 1012,8 hPa 0,0 l/m 0 min 0 min 127 W/m 6,4 km/h (2 Bft) 96,43 %
13.10.2020 16:44 12,9 C 12,8 C 13,3 C 77 % 1012,8 hPa 0,0 l/m 0 min 0 min 132 W/m 12,9 km/h (3 Bft) 97,37 %
13.10.2020 16:46 12,9 C 12,8 C 13,3 C 77 % 1012,8 hPa 0,0 l/m 0 min 0 min 136 W/m 9,7 km/h (2 Bft) 91,49 %
13.10.2020 16:48 12,8 C 12,8 C 13,3 C 78 % 1012,8 hPa 0,0 l/m 2 min 0 min 143 W/m 12,9 km/h (3 Bft) 93,62 %
13.10.2020 16:50 12,8 C 12,8 C 13,3 C 78 % 1012,8 hPa 0,0 l/m 2 min 0 min 148 W/m 9,7 km/h (2 Bft) 92,73 %
13.10.2020 16:52 12,8 C 12,8 C 13,3 C 78 % 1012,8 hPa 0,0 l/m 2 min 0 min 145 W/m 9,7 km/h (2 Bft) 93,62 %
13.10.2020 16:54 12,7 C 12,8 C 12,8 C 78 % 1012,9 hPa 0,0 l/m 2 min 0 min 142 W/m 19,3 km/h (3 Bft) 94,74 %
13.10.2020 16:56 12,7 C 12,8 C 12,8 C 78 % 1012,8 hPa 0,0 l/m 2 min 0 min 138 W/m 25,7 km/h (4 Bft) 94,00 %
13.10.2020 16:58 12,7 C 12,8 C 12,8 C 77 % 1012,9 hPa 0,0 l/m 2 min 0 min 130 W/m 19,3 km/h (3 Bft) 95,74 %
13.10.2020 17:00 12,7 C 12,8 C 12,8 C 76 % 1012,9 hPa 0,0 l/m 0 min 0 min 121 W/m 16,1 km/h (3 Bft) 93,62 %
13.10.2020 17:02 12,6 C 12,2 C 12,8 C 76 % 1012,9 hPa 0,0 l/m 0 min 0 min 115 W/m 22,5 km/h (4 Bft) 93,02 %
13.10.2020 17:04 12,6 C 12,2 C 12,8 C 76 % 1012,9 hPa 0,0 l/m 0 min 0 min 111 W/m 16,1 km/h (3 Bft) 95,74 %
13.10.2020 17:06 12,6 C 12,2 C 12,8 C 76 % 1012,9 hPa 0,0 l/m 0 min 0 min 107 W/m 12,9 km/h (3 Bft) 96,00 %
13.10.2020 17:08 12,6 C 12,2 C 12,8 C 76 % 1012,9 hPa 0,0 l/m 0 min 0 min 103 W/m 12,9 km/h (3 Bft) 95,74 %
13.10.2020 17:10 12,6 C 12,2 C 12,8 C 76 % 1012,9 hPa 0,0 l/m 0 min 0 min 99 W/m 19,3 km/h (3 Bft) 95,65 %
13.10.2020 17:12 12,5 C 12,2 C 12,8 C 76 % 1013,0 hPa 0,0 l/m 0 min 0 min 89 W/m 16,1 km/h (3 Bft) 98,00 %
13.10.2020 17:14 12,5 C 11,7 C 12,8 C 76 % 1013,0 hPa 0,0 l/m 0 min 0 min 84 W/m 16,1 km/h (3 Bft) 97,87 %
13.10.2020 17:16 12,4 C 11,7 C 12,8 C 77 % 1012,9 hPa 0,0 l/m 0 min 0 min 88 W/m 6,4 km/h (2 Bft) 95,74 %
13.10.2020 17:18 12,4 C 11,7 C 12,8 C 77 % 1013,0 hPa 0,0 l/m 0 min 0 min 85 W/m 6,4 km/h (2 Bft) 97,87 %
13.10.2020 17:20 12,4 C 11,7 C 12,8 C 77 % 1013,0 hPa 0,0 l/m 0 min 0 min 81 W/m 6,4 km/h (2 Bft) 97,87 %
13.10.2020 17:22 12,4 C 11,7 C 12,8 C 78 % 1013,0 hPa 0,0 l/m 0 min 0 min 89 W/m 12,9 km/h (3 Bft) 100,00 %
13.10.2020 17:24 12,4 C 11,7 C 12,2 C 78 % 1013,0 hPa 0,0 l/m 0 min 0 min 90 W/m 16,1 km/h (3 Bft) 100,00 %
13.10.2020 17:26 12,4 C 11,7 C 12,2 C 78 % 1013,0 hPa 0,0 l/m 0 min 0 min 85 W/m 12,9 km/h (3 Bft) 100,00 %
13.10.2020 17:28 12,3 C 11,7 C 12,2 C 79 % 1013,0 hPa 0,0 l/m 0 min 0 min 81 W/m 12,9 km/h (3 Bft) 100,00 %
13.10.2020 17:30 12,3 C 11,7 C 12,2 C 79 % 1013,0 hPa 0,0 l/m 0 min 0 min 75 W/m 12,9 km/h (3 Bft) 100,00 %
13.10.2020 17:32 12,3 C 11,7 C 12,2 C 79 % 1013,1 hPa 0,0 l/m 0 min 0 min 69 W/m 12,9 km/h (3 Bft) 97,87 %
13.10.2020 17:34 12,2 C 11,1 C 12,2 C 79 % 1013,1 hPa 0,0 l/m 0 min 0 min 65 W/m 12,9 km/h (3 Bft) 100,00 %
13.10.2020 17:36 12,2 C 11,1 C 12,2 C 80 % 1013,1 hPa 0,0 l/m 0 min 0 min 63 W/m 12,9 km/h (3 Bft) 100,00 %
13.10.2020 17:38 12,2 C 11,1 C 12,2 C 80 % 1013,2 hPa 0,0 l/m 0 min 0 min 59 W/m 12,9 km/h (3 Bft) 100,00 %
13.10.2020 17:40 12,1 C 11,1 C 12,2 C 80 % 1013,2 hPa 0,0 l/m 0 min 0 min 55 W/m 12,9 km/h (3 Bft) 97,87 %
13.10.2020 17:42 12,1 C 10,6 C 12,2 C 80 % 1013,2 hPa 0,0 l/m 0 min 0 min 53 W/m 16,1 km/h (3 Bft) 100,00 %
13.10.2020 17:44 12,0 C 10,6 C 12,2 C 79 % 1013,2 hPa 0,0 l/m 0 min 0 min 51 W/m 19,3 km/h (3 Bft) 100,00 %
13.10.2020 17:46 11,9 C 10,6 C 12,2 C 79 % 1013,3 hPa 0,0 l/m 0 min 0 min 48 W/m 12,9 km/h (3 Bft) 98,00 %
13.10.2020 17:48 11,8 C 10,6 C 12,2 C 79 % 1013,3 hPa 0,0 l/m 0 min 0 min 46 W/m 16,1 km/h (3 Bft) 100,00 %
13.10.2020 17:50 11,8 C 10,6 C 11,7 C 79 % 1013,3 hPa 0,0 l/m 0 min 0 min 43 W/m 19,3 km/h (3 Bft) 100,00 %
13.10.2020 17:52 11,7 C 10,6 C 11,7 C 79 % 1013,3 hPa 0,0 l/m 0 min 0 min 41 W/m 19,3 km/h (3 Bft) 97,87 %
13.10.2020 17:54 11,6 C 10,6 C 11,7 C 79 % 1013,3 hPa 0,0 l/m 0 min 0 min 40 W/m 16,1 km/h (3 Bft) 100,00 %
13.10.2020 17:56 11,6 C 10,6 C 11,7 C 79 % 1013,4 hPa 0,0 l/m 0 min 0 min 38 W/m 16,1 km/h (3 Bft) 100,00 %
13.10.2020 17:58 11,6 C 10,6 C 11,7 C 79 % 1013,5 hPa 0,0 l/m 0 min 0 min 36 W/m 16,1 km/h (3 Bft) 100,00 %
13.10.2020 18:00 11,5 C 10,0 C 11,7 C 79 % 1013,5 hPa 0,0 l/m 0 min 0 min 33 W/m 16,1 km/h (3 Bft) 100,00 %
13.10.2020 18:02 11,4 C 10,0 C 11,7 C 79 % 1013,5 hPa 0,0 l/m 0 min 0 min 32 W/m 6,4 km/h (2 Bft) 98,00 %
13.10.2020 18:04 11,4 C 10,0 C 11,7 C 80 % 1013,4 hPa 0,0 l/m 0 min 0 min 31 W/m 12,9 km/h (3 Bft) 97,14 %
13.10.2020 18:08 11,3 C 10,0 C 11,7 C 80 % 1013,5 hPa 0,0 l/m 0 min 0 min 29 W/m 19,3 km/h (3 Bft) 98,94 %
13.10.2020 18:10 11,3 C 10,0 C 11,7 C 80 % 1013,5 hPa 0,0 l/m 0 min 0 min 27 W/m 16,1 km/h (3 Bft) 100,00 %
13.10.2020 18:12 11,3 C 10,0 C 11,1 C 80 % 1013,5 hPa 0,0 l/m 0 min 0 min 26 W/m 6,4 km/h (2 Bft) 100,00 %
13.10.2020 18:14 11,2 C 10,0 C 11,1 C 81 % 1013,5 hPa 0,0 l/m 0 min 0 min 26 W/m 3,2 km/h (1 Bft) 100,00 %
13.10.2020 18:16 11,2 C 10,0 C 11,1 C 81 % 1013,5 hPa 0,0 l/m 0 min 0 min 25 W/m 0,0 km/h (0 Bft) 97,87 %
13.10.2020 18:18 11,1 C 10,0 C 11,1 C 81 % 1013,5 hPa 0,0 l/m 0 min 0 min 24 W/m 12,9 km/h (3 Bft) 100,00 %
13.10.2020 18:20 11,1 C 10,0 C 11,7 C 81 % 1013,5 hPa 0,0 l/m 0 min 0 min 23 W/m 25,7 km/h (4 Bft) 95,74 %
13.10.2020 18:22 11,1 C 10,0 C 11,7 C 81 % 1013,5 hPa 0,0 l/m 0 min 0 min 22 W/m 16,1 km/h (3 Bft) 100,00 %
13.10.2020 18:24 11,0 C 10,0 C 11,1 C 81 % 1013,5 hPa 0,0 l/m 2 min 0 min 21 W/m 12,9 km/h (3 Bft) 100,00 %
13.10.2020 18:26 10,9 C 10,0 C 11,1 C 81 % 1013,5 hPa 0,0 l/m 0 min 0 min 19 W/m 6,4 km/h (2 Bft) 100,00 %
13.10.2020 18:28 10,9 C 9,4 C 11,1 C 81 % 1013,5 hPa 0,0 l/m 0 min 0 min 18 W/m 12,9 km/h (3 Bft) 100,00 %
13.10.2020 18:30 10,9 C 9,4 C 11,1 C 82 % 1013,6 hPa 0,0 l/m 0 min 0 min 17 W/m 6,4 km/h (2 Bft) 100,00 %
13.10.2020 18:32 10,9 C 9,4 C 11,1 C 82 % 1013,6 hPa 0,0 l/m 0 min 0 min 16 W/m 0,0 km/h (0 Bft) 100,00 %
13.10.2020 18:34 10,8 C 9,4 C 11,1 C 82 % 1013,6 hPa 0,0 l/m 0 min 0 min 13 W/m 0,0 km/h (0 Bft) 100,00 %
13.10.2020 18:36 10,8 C 9,4 C 11,1 C 82 % 1013,6 hPa 0,0 l/m 0 min 0 min 11 W/m 0,0 km/h (0 Bft) 97,14 %
13.10.2020 18:38 10,8 C 8,9 C 11,1 C 82 % 1013,7 hPa 0,0 l/m 0 min 0 min 9 W/m 0,0 km/h (0 Bft) 100,00 %
13.10.2020 18:40 10,8 C 8,9 C 10,6 C 82 % 1013,6 hPa 0,0 l/m 0 min 0 min 7 W/m 0,0 km/h (0 Bft) 100,00 %
13.10.2020 18:42 10,7 C 8,9 C 10,6 C 82 % 1013,6 hPa 0,0 l/m 0 min 0 min 5 W/m 0,0 km/h (0 Bft) 100,00 %
13.10.2020 18:44 10,7 C 8,9 C 10,6 C 82 % 1013,6 hPa 0,0 l/m 0 min 0 min 2 W/m 0,0 km/h (0 Bft) 100,00 %
13.10.2020 18:46 10,7 C 8,9 C 10,6 C 83 % 1013,6 hPa 0,0 l/m 0 min 0 min 0 W/m 0,0 km/h (0 Bft) 98,00 %
13.10.2020 18:48 10,6 C 8,9 C 10,6 C 83 % 1013,6 hPa 0,0 l/m 0 min 0 min 0 W/m 0,0 km/h (0 Bft) 100,00 %
13.10.2020 18:50 10,6 C 8,9 C 10,6 C 83 % 1013,6 hPa 0,0 l/m 0 min 0 min 0 W/m 0,0 km/h (0 Bft) 97,87 %
13.10.2020 18:52 10,5 C 8,9 C 10,6 C 83 % 1013,6 hPa 0,0 l/m 0 min 0 min 0 W/m 6,4 km/h (2 Bft) 100,00 %
13.10.2020 18:54 10,4 C 8,9 C 10,6 C 83 % 1013,6 hPa 0,0 l/m 0 min 0 min 0 W/m 6,4 km/h (2 Bft) 97,87 %
13.10.2020 18:56 10,4 C 8,9 C 10,6 C 83 % 1013,6 hPa 0,0 l/m 0 min 0 min 0 W/m 6,4 km/h (2 Bft) 97,87 %
13.10.2020 18:58 10,3 C 8,9 C 10,6 C 83 % 1013,6 hPa 0,0 l/m 0 min 0 min 0 W/m 0,0 km/h (0 Bft) 100,00 %
13.10.2020 19:00 10,3 C 8,9 C 10,6 C 84 % 1013,7 hPa 0,0 l/m 0 min 0 min 0 W/m 0,0 km/h (0 Bft) 100,00 %
13.10.2020 19:02 10,2 C 8,3 C 10,6 C 84 % 1013,7 hPa 0,0 l/m 0 min 0 min 0 W/m 0,0 km/h (0 Bft) 97,14 %
13.10.2020 19:04 10,2 C 8,3 C 10,6 C 84 % 1013,7 hPa 0,0 l/m 0 min 0 min 0 W/m 0,0 km/h (0 Bft) 97,87 %
13.10.2020 19:06 10,2 C 8,3 C 10,6 C 84 % 1013,8 hPa 0,0 l/m 0 min 0 min 0 W/m 0,0 km/h (0 Bft) 98,18 %
13.10.2020 19:08 10,1 C 8,3 C 10,0 C 84 % 1013,7 hPa 0,0 l/m 0 min 0 min 0 W/m 0,0 km/h (0 Bft) 97,87 %
13.10.2020 19:10 10,1 C 8,3 C 10,0 C 84 % 1013,8 hPa 0,0 l/m 0 min 0 min 0 W/m 0,0 km/h (0 Bft) 100,00 %
13.10.2020 19:12 10,0 C 8,3 C 10,0 C 84 % 1013,7 hPa 0,0 l/m 0 min 0 min 0 W/m 0,0 km/h (0 Bft) 96,00 %
13.10.2020 19:15 9,9 C 8,3 C 10,0 C 84 % 1013,8 hPa 0,0 l/m 0 min 0 min 0 W/m 0,0 km/h (0 Bft) 95,71 %
13.10.2020 19:16 9,9 C 8,3 C 10,0 C 84 % 1013,8 hPa 0,0 l/m 0 min 0 min 0 W/m 0,0 km/h (0 Bft) 91,67 %
13.10.2020 19:18 9,9 C 7,8 C 10,0 C 84 % 1013,8 hPa 0,0 l/m 0 min 0 min 0 W/m 0,0 km/h (0 Bft) 97,87 %
13.10.2020 19:20 9,9 C 7,8 C 10,0 C 84 % 1013,8 hPa 0,0 l/m 0 min 0 min 0 W/m 0,0 km/h (0 Bft) 95,74 %
13.10.2020 19:26 9,8 C 7,2 C 9,4 C 84 % 1013,9 hPa 0,0 l/m 0 min 0 min 0 W/m 0,0 km/h (0 Bft) 95,00 %
13.10.2020 19:32 9,6 C 6,7 C 8,9 C 84 % 1013,9 hPa 0,0 l/m 0 min 0 min 0 W/m 0,0 km/h (0 Bft) 93,42 %
13.10.2020 19:34 9,6 C 6,7 C 8,9 C 84 % 1013,9 hPa 0,0 l/m 0 min 0 min 0 W/m 0,0 km/h (0 Bft) 95,74 %
13.10.2020 19:36 9,6 C 6,7 C 8,9 C 84 % 1013,9 hPa 0,0 l/m 0 min 0 min 0 W/m 0,0 km/h (0 Bft) 93,62 %
13.10.2020 19:38 9,5 C 6,7 C 8,3 C 84 % 1013,9 hPa 0,0 l/m 0 min 0 min 0 W/m 0,0 km/h (0 Bft) 93,62 %
13.10.2020 19:40 9,4 C 6,7 C 8,3 C 84 % 1014,0 hPa 0,0 l/m 0 min 0 min 0 W/m 0,0 km/h (0 Bft) 93,62 %
13.10.2020 19:44 9,3 C 6,7 C 8,3 C 84 % 1014,0 hPa 0,0 l/m 0 min 0 min 0 W/m 0,0 km/h (0 Bft) 93,48 %
13.10.2020 19:46 9,3 C 6,1 C 8,3 C 84 % 1014,0 hPa 0,0 l/m 0 min 0 min 0 W/m 0,0 km/h (0 Bft) 95,74 %
13.10.2020 19:48 9,2 C 6,1 C 8,3 C 84 % 1014,1 hPa 0,0 l/m 0 min 0 min 0 W/m 0,0 km/h (0 Bft) 95,45 %
13.10.2020 19:50 9,1 C 6,1 C 8,3 C 84 % 1014,1 hPa 0,0 l/m 0 min 0 min 0 W/m 0,0 km/h (0 Bft) 95,83 %
13.10.2020 19:52 9,1 C 6,1 C 8,3 C 84 % 1014,1 hPa 0,0 l/m 0 min 0 min 0 W/m 0,0 km/h (0 Bft) 95,74 %
13.10.2020 19:54 9,0 C 6,1 C 7,8 C 84 % 1014,2 hPa 0,0 l/m 0 min 0 min 0 W/m 0,0 km/h (0 Bft) 97,92 %
13.10.2020 19:56 8,9 C 6,1 C 7,8 C 84 % 1014,2 hPa 0,0 l/m 0 min 0 min 0 W/m 0,0 km/h (0 Bft) 91,67 %
13.10.2020 19:58 8,8 C 6,1 C 7,8 C 84 % 1014,3 hPa 0,0 l/m 0 min 0 min 0 W/m 0,0 km/h (0 Bft) 95,08 %
13.10.2020 20:00 8,8 C 5,6 C 7,8 C 84 % 1014,2 hPa 0,0 l/m 0 min 0 min 0 W/m 0,0 km/h (0 Bft) 94,29 %
13.10.2020 20:02 8,7 C 5,6 C 7,8 C 84 % 1014,3 hPa 0,0 l/m 0 min 0 min 0 W/m 0,0 km/h (0 Bft) 95,74 %
13.10.2020 20:04 8,7 C 5,6 C 7,8 C 85 % 1014,3 hPa 0,0 l/m 0 min 0 min 0 W/m 0,0 km/h (0 Bft) 94,83 %
13.10.2020 20:06 8,6 C 5,6 C 7,8 C 85 % 1014,3 hPa 0,0 l/m 0 min 0 min 0 W/m 0,0 km/h (0 Bft) 96,67 %
13.10.2020 20:08 8,5 C 5,6 C 7,8 C 85 % 1014,3 hPa 0,0 l/m 0 min 0 min 0 W/m 0,0 km/h (0 Bft) 94,83 %
13.10.2020 20:10 8,4 C 5,6 C 7,8 C 85 % 1014,3 hPa 0,0 l/m 0 min 0 min 0 W/m 0,0 km/h (0 Bft) 93,62 %
13.10.2020 20:12 8,4 C 5,6 C 7,2 C 85 % 1014,3 hPa 0,0 l/m 0 min 0 min 0 W/m 0,0 km/h (0 Bft) 97,87 %
13.10.2020 20:14 8,3 C 5,6 C 7,2 C 85 % 1014,3 hPa 0,0 l/m 0 min 0 min 0 W/m 0,0 km/h (0 Bft) 97,92 %
13.10.2020 20:16 8,2 C 5,6 C 7,2 C 85 % 1014,3 hPa 0,0 l/m 0 min 0 min 0 W/m 0,0 km/h (0 Bft) 95,65 %
13.10.2020 20:18 8,2 C 5,6 C 7,2 C 86 % 1014,4 hPa 0,0 l/m 0 min 0 min 0 W/m 0,0 km/h (0 Bft) 97,87 %
13.10.2020 20:20 8,1 C 5,6 C 7,2 C 86 % 1014,3 hPa 0,0 l/m 0 min 0 min 0 W/m 0,0 km/h (0 Bft) 97,87 %
13.10.2020 20:22 8,1 C 5,6 C 7,2 C 86 % 1014,4 hPa 0,0 l/m 0 min 0 min 0 W/m 0,0 km/h (0 Bft) 97,87 %
13.10.2020 20:24 8,0 C 5,6 C 7,2 C 86 % 1014,4 hPa 0,0 l/m 0 min 0 min 0 W/m 0,0 km/h (0 Bft) 95,83 %
13.10.2020 20:26 7,9 C 5,6 C 7,2 C 86 % 1014,4 hPa 0,0 l/m 0 min 0 min 0 W/m 0,0 km/h (0 Bft) 97,83 %
13.10.2020 20:27 7,9 C 5,6 C 7,2 C 86 % 1014,4 hPa 0,0 l/m 0 min 0 min 0 W/m 0,0 km/h (0 Bft) 94,44 %
13.10.2020 20:30 7,9 C 5,6 C 7,2 C 86 % 1014,4 hPa 0,0 l/m 0 min 0 min 0 W/m 0,0 km/h (0 Bft) 96,61 %
13.10.2020 20:32 7,8 C 5,6 C 7,2 C 86 % 1014,4 hPa 0,0 l/m 0 min 0 min 0 W/m 0,0 km/h (0 Bft) 97,14 %
13.10.2020 20:34 7,8 C 5,6 C 7,2 C 86 % 1014,4 hPa 0,0 l/m 0 min 0 min 0 W/m 0,0 km/h (0 Bft) 95,74 %
13.10.2020 20:36 7,7 C 5,6 C 7,2 C 86 % 1014,4 hPa 0,0 l/m 0 min 0 min 0 W/m 0,0 km/h (0 Bft) 93,62 %
13.10.2020 20:38 7,7 C 5,6 C 7,2 C 87 % 1014,5 hPa 0,0 l/m 0 min 0 min 0 W/m 0,0 km/h (0 Bft) 96,30 %
13.10.2020 20:40 7,6 C 5,6 C 7,2 C 87 % 1014,5 hPa 0,0 l/m 0 min 0 min 0 W/m 0,0 km/h (0 Bft) 98,00 %
13.10.2020 20:42 7,6 C 5,6 C 7,2 C 87 % 1014,5 hPa 0,0 l/m 0 min 0 min 0 W/m 0,0 km/h (0 Bft) 95,83 %
13.10.2020 20:44 7,6 C 5,0 C 7,2 C 87 % 1014,5 hPa 0,0 l/m 0 min 0 min 0 W/m 0,0 km/h (0 Bft) 100,00 %
13.10.2020 20:46 7,5 C 5,0 C 7,2 C 87 % 1014,6 hPa 0,0 l/m 0 min 0 min 0 W/m 0,0 km/h (0 Bft) 95,74 %
13.10.2020 20:48 7,4 C 5,0 C 7,2 C 87 % 1014,6 hPa 0,0 l/m 0 min 0 min 0 W/m 0,0 km/h (0 Bft) 97,87 %
13.10.2020 20:50 7,4 C 5,0 C 7,2 C 87 % 1014,6 hPa 0,0 l/m 0 min 0 min 0 W/m 0,0 km/h (0 Bft) 97,87 %
13.10.2020 20:52 7,4 C 5,0 C 7,2 C 87 % 1014,6 hPa 0,0 l/m 0 min 0 min 0 W/m 0,0 km/h (0 Bft) 97,83 %
13.10.2020 20:54 7,3 C 5,0 C 7,2 C 87 % 1014,6 hPa 0,0 l/m 0 min 0 min 0 W/m 0,0 km/h (0 Bft) 97,87 %
13.10.2020 20:56 7,3 C 5,0 C 7,2 C 87 % 1014,6 hPa 0,0 l/m 0 min 0 min 0 W/m 0,0 km/h (0 Bft) 93,62 %
13.10.2020 20:58 7,2 C 5,0 C 7,2 C 87 % 1014,6 hPa 0,0 l/m 0 min 0 min 0 W/m 0,0 km/h (0 Bft) 95,74 %
13.10.2020 21:00 7,2 C 5,0 C 7,2 C 88 % 1014,5 hPa 0,0 l/m 0 min 0 min 0 W/m 0,0 km/h (0 Bft) 97,87 %
13.10.2020 21:02 7,2 C 5,0 C 7,2 C 88 % 1014,6 hPa 0,0 l/m 0 min 0 min 0 W/m 0,0 km/h (0 Bft) 97,87 %
13.10.2020 21:04 7,2 C 5,0 C 7,2 C 87 % 1014,6 hPa 0,0 l/m 0 min 0 min 0 W/m 0,0 km/h (0 Bft) 95,65 %
13.10.2020 21:06 7,1 C 5,0 C 7,2 C 88 % 1014,6 hPa 0,0 l/m 0 min 0 min 0 W/m 0,0 km/h (0 Bft) 95,74 %
13.10.2020 21:08 7,1 C 5,0 C 7,2 C 88 % 1014,6 hPa 0,0 l/m 0 min 0 min 0 W/m 0,0 km/h (0 Bft) 95,74 %
13.10.2020 21:10 7,1 C 5,0 C 7,2 C 88 % 1014,6 hPa 0,0 l/m 0 min 0 min 0 W/m 0,0 km/h (0 Bft) 93,62 %
13.10.2020 21:12 7,0 C 5,0 C 7,2 C 88 % 1014,7 hPa 0,0 l/m 0 min 0 min 0 W/m 0,0 km/h (0 Bft) 93,62 %
13.10.2020 21:14 7,0 C 5,0 C 6,7 C 88 % 1014,7 hPa 0,0 l/m 0 min 0 min 0 W/m 0,0 km/h (0 Bft) 95,74 %
13.10.2020 21:16 6,9 C 5,0 C 6,7 C 88 % 1014,7 hPa 0,0 l/m 0 min 0 min 0 W/m 0,0 km/h (0 Bft) 95,65 %
13.10.2020 21:18 6,9 C 5,0 C 6,7 C 88 % 1014,7 hPa 0,0 l/m 0 min 0 min 0 W/m 0,0 km/h (0 Bft) 95,74 %
13.10.2020 21:20 6,9 C 5,0 C 6,7 C 88 % 1014,7 hPa 0,0 l/m 0 min 0 min 0 W/m 0,0 km/h (0 Bft) 95,74 %
13.10.2020 21:22 6,8 C 5,0 C 6,7 C 88 % 1014,7 hPa 0,0 l/m 0 min 0 min 0 W/m 0,0 km/h (0 Bft) 97,87 %
13.10.2020 21:24 6,8 C 5,0 C 6,7 C 88 % 1014,7 hPa 0,0 l/m 0 min 0 min 0 W/m 0,0 km/h (0 Bft) 95,74 %
13.10.2020 21:26 6,8 C 4,4 C 6,7 C 88 % 1014,7 hPa 0,0 l/m 0 min 0 min 0 W/m 0,0 km/h (0 Bft) 97,87 %
13.10.2020 21:28 6,8 C 4,4 C 6,7 C 88 % 1014,8 hPa 0,0 l/m 0 min 0 min 0 W/m 0,0 km/h (0 Bft) 97,83 %
13.10.2020 21:30 6,7 C 4,4 C 6,7 C 88 % 1014,8 hPa 0,0 l/m 0 min 0 min 0 W/m 0,0 km/h (0 Bft) 97,87 %
13.10.2020 21:32 6,7 C 4,4 C 6,7 C 89 % 1014,8 hPa 0,0 l/m 0 min 0 min 0 W/m 0,0 km/h (0 Bft) 97,87 %
13.10.2020 21:34 6,7 C 4,4 C 6,7 C 88 % 1014,8 hPa 0,0 l/m 0 min 0 min 0 W/m 0,0 km/h (0 Bft) 95,74 %
13.10.2020 21:36 6,6 C 4,4 C 6,7 C 89 % 1014,9 hPa 0,0 l/m 0 min 0 min 0 W/m 0,0 km/h (0 Bft) 97,87 %
13.10.2020 21:38 6,6 C 4,4 C 6,7 C 89 % 1014,9 hPa 0,0 l/m 0 min 0 min 0 W/m 0,0 km/h (0 Bft) 97,87 %
13.10.2020 21:40 6,6 C 4,4 C 6,7 C 89 % 1014,9 hPa 0,0 l/m 0 min 0 min 0 W/m 0,0 km/h (0 Bft) 95,65 %
13.10.2020 21:42 6,6 C 5,0 C 6,7 C 89 % 1015,0 hPa 0,0 l/m 0 min 0 min 0 W/m 0,0 km/h (0 Bft) 97,87 %
13.10.2020 21:44 6,5 C 5,0 C 6,7 C 89 % 1015,0 hPa 0,0 l/m 0 min 0 min 0 W/m 0,0 km/h (0 Bft) 100,00 %
13.10.2020 21:46 6,5 C 5,0 C 6,7 C 89 % 1015,0 hPa 0,0 l/m 0 min 0 min 0 W/m 0,0 km/h (0 Bft) 100,00 %
13.10.2020 21:48 6,5 C 5,0 C 7,2 C 89 % 1015,0 hPa 0,0 l/m 0 min 0 min 0 W/m 0,0 km/h (0 Bft) 100,00 %
13.10.2020 21:50 6,4 C 5,0 C 7,2 C 90 % 1015,0 hPa 0,0 l/m 0 min 0 min 0 W/m 0,0 km/h (0 Bft) 100,00 %
13.10.2020 21:52 6,4 C 5,0 C 7,2 C 90 % 1015,0 hPa 0,0 l/m 0 min 0 min 0 W/m 0,0 km/h (0 Bft) 97,83 %
13.10.2020 21:54 6,4 C 5,0 C 7,2 C 90 % 1015,0 hPa 0,0 l/m 0 min 0 min 0 W/m 0,0 km/h (0 Bft) 100,00 %
13.10.2020 21:56 6,4 C 5,6 C 7,2 C 90 % 1015,0 hPa 0,0 l/m 0 min 0 min 0 W/m 0,0 km/h (0 Bft) 100,00 %
13.10.2020 21:58 6,4 C 5,6 C 7,2 C 90 % 1015,0 hPa 0,0 l/m 0 min 0 min 0 W/m 0,0 km/h (0 Bft) 100,00 %
13.10.2020 22:00 6,4 C 5,6 C 7,2 C 90 % 1015,0 hPa 0,0 l/m 0 min 0 min 0 W/m 0,0 km/h (0 Bft) 97,87 %
13.10.2020 22:02 6,4 C 5,6 C 7,2 C 91 % 1015,0 hPa 0,0 l/m 0 min 0 min 0 W/m 0,0 km/h (0 Bft) 97,83 %
13.10.2020 22:04 6,4 C 5,6 C 7,2 C 90 % 1015,0 hPa 0,0 l/m 0 min 0 min 0 W/m 0,0 km/h (0 Bft) 100,00 %
13.10.2020 22:06 6,4 C 5,6 C 7,2 C 91 % 1015,0 hPa 0,0 l/m 0 min 0 min 0 W/m 0,0 km/h (0 Bft) 100,00 %
13.10.2020 22:08 6,4 C 5,6 C 7,2 C 91 % 1015,0 hPa 0,0 l/m 0 min 0 min 0 W/m 0,0 km/h (0 Bft) 100,00 %
13.10.2020 22:10 6,4 C 5,6 C 7,2 C 91 % 1015,0 hPa 0,0 l/m 0 min 0 min 0 W/m 0,0 km/h (0 Bft) 100,00 %
13.10.2020 22:12 6,4 C 5,6 C 7,2 C 91 % 1015,1 hPa 0,0 l/m 0 min 0 min 0 W/m 0,0 km/h (0 Bft) 100,00 %
13.10.2020 22:14 6,4 C 5,6 C 7,2 C 91 % 1015,1 hPa 0,0 l/m 0 min 0 min 0 W/m 0,0 km/h (0 Bft) 97,83 %
13.10.2020 22:16 6,4 C 5,6 C 7,2 C 92 % 1015,1 hPa 0,0 l/m 0 min 0 min 0 W/m 0,0 km/h (0 Bft) 97,87 %
13.10.2020 22:18 6,4 C 5,6 C 7,8 C 92 % 1015,1 hPa 0,0 l/m 0 min 0 min 0 W/m 0,0 km/h (0 Bft) 100,00 %
13.10.2020 22:20 6,4 C 5,6 C 7,8 C 92 % 1015,1 hPa 0,0 l/m 0 min 0 min 0 W/m 0,0 km/h (0 Bft) 100,00 %
13.10.2020 22:22 6,5 C 5,6 C 7,8 C 92 % 1015,1 hPa 0,0 l/m 0 min 0 min 0 W/m 0,0 km/h (0 Bft) 100,00 %
13.10.2020 22:24 6,5 C 5,6 C 7,8 C 92 % 1015,2 hPa 0,0 l/m 0 min 0 min 0 W/m 0,0 km/h (0 Bft) 100,00 %
13.10.2020 22:26 6,5 C 5,6 C 7,8 C 92 % 1015,2 hPa 0,0 l/m 0 min 0 min 0 W/m 0,0 km/h (0 Bft) 100,00 %
13.10.2020 22:28 6,5 C 5,6 C 7,8 C 93 % 1015,2 hPa 0,0 l/m 0 min 0 min 0 W/m 0,0 km/h (0 Bft) 100,00 %
13.10.2020 22:30 6,5 C 5,6 C 7,8 C 93 % 1015,2 hPa 0,0 l/m 0 min 0 min 0 W/m 0,0 km/h (0 Bft) 97,87 %
13.10.2020 22:32 6,5 C 5,6 C 7,8 C 93 % 1015,2 hPa 0,0 l/m 0 min 0 min 0 W/m 0,0 km/h (0 Bft) 100,00 %
13.10.2020 22:34 6,5 C 5,6 C 7,8 C 93 % 1015,2 hPa 0,0 l/m 0 min 0 min 0 W/m 0,0 km/h (0 Bft) 100,00 %
13.10.2020 22:36 6,5 C 5,6 C 7,8 C 93 % 1015,2 hPa 0,0 l/m 0 min 0 min 0 W/m 0,0 km/h (0 Bft) 97,87 %
13.10.2020 22:38 6,5 C 5,6 C 7,2 C 93 % 1015,2 hPa 0,0 l/m 0 min 0 min 0 W/m 0,0 km/h (0 Bft) 100,00 %
13.10.2020 22:40 6,5 C 5,6 C 7,2 C 93 % 1015,2 hPa 0,0 l/m 0 min 0 min 0 W/m 0,0 km/h (0 Bft) 100,00 %
13.10.2020 22:42 6,5 C 5,6 C 7,2 C 93 % 1015,2 hPa 0,0 l/m 0 min 0 min 0 W/m 0,0 km/h (0 Bft) 100,00 %
13.10.2020 22:44 6,5 C 5,6 C 7,2 C 93 % 1015,2 hPa 0,0 l/m 0 min 0 min 0 W/m 0,0 km/h (0 Bft) 100,00 %
13.10.2020 22:46 6,5 C 5,6 C 7,2 C 93 % 1015,2 hPa 0,0 l/m 0 min 0 min 0 W/m 0,0 km/h (0 Bft) 100,00 %
13.10.2020 22:48 6,5 C 5,6 C 7,2 C 93 % 1015,2 hPa 0,0 l/m 0 min 0 min 0 W/m 0,0 km/h (0 Bft) 95,74 %
13.10.2020 22:50 6,5 C 5,0 C 7,2 C 93 % 1015,2 hPa 0,0 l/m 0 min 0 min 0 W/m 0,0 km/h (0 Bft) 86,96 %
13.10.2020 22:52 6,5 C 5,0 C 7,2 C 93 % 1015,2 hPa 0,0 l/m 0 min 0 min 0 W/m 0,0 km/h (0 Bft) 62,22 %
13.10.2020 22:54 6,5 C 5,0 C 7,2 C 93 % 1015,2 hPa 0,0 l/m 0 min 0 min 0 W/m 0,0 km/h (0 Bft) 95,74 %
13.10.2020 22:56 6,5 C 5,0 C 7,2 C 93 % 1015,1 hPa 0,0 l/m 0 min 0 min 0 W/m 0,0 km/h (0 Bft) 97,87 %
13.10.2020 22:58 6,4 C 5,0 C 7,2 C 93 % 1015,1 hPa 0,0 l/m 0 min 0 min 0 W/m 0,0 km/h (0 Bft) 97,87 %
13.10.2020 23:00 6,4 C 5,0 C 7,2 C 93 % 1015,1 hPa 0,0 l/m 0 min 0 min 0 W/m 0,0 km/h (0 Bft) 93,62 %
13.10.2020 23:02 6,4 C 5,0 C 7,2 C 93 % 1015,1 hPa 0,0 l/m 0 min 0 min 0 W/m 0,0 km/h (0 Bft) 95,65 %
13.10.2020 23:04 6,4 C 5,0 C 7,2 C 93 % 1015,1 hPa 0,0 l/m 0 min 0 min 0 W/m 0,0 km/h (0 Bft) 97,87 %
13.10.2020 23:06 6,4 C 5,0 C 7,2 C 93 % 1015,2 hPa 0,0 l/m 0 min 0 min 0 W/m 0,0 km/h (0 Bft) 95,74 %
13.10.2020 23:08 6,4 C 5,0 C 6,7 C 93 % 1015,2 hPa 0,0 l/m 0 min 0 min 0 W/m 0,0 km/h (0 Bft) 95,74 %
13.10.2020 23:10 6,3 C 4,4 C 6,7 C 93 % 1015,3 hPa 0,0 l/m 0 min 0 min 0 W/m 0,0 km/h (0 Bft) 95,74 %
13.10.2020 23:12 6,3 C 4,4 C 6,7 C 93 % 1015,3 hPa 0,0 l/m 0 min 0 min 0 W/m 0,0 km/h (0 Bft) 95,65 %
13.10.2020 23:14 6,3 C 4,4 C 6,7 C 93 % 1015,3 hPa 0,0 l/m 0 min 0 min 0 W/m 0,0 km/h (0 Bft) 93,62 %
13.10.2020 23:16 6,3 C 4,4 C 6,7 C 93 % 1015,3 hPa 0,0 l/m 0 min 0 min 0 W/m 0,0 km/h (0 Bft) 93,62 %
13.10.2020 23:18 6,3 C 4,4 C 6,7 C 93 % 1015,3 hPa 0,0 l/m 0 min 0 min 0 W/m 0,0 km/h (0 Bft) 93,62 %
13.10.2020 23:20 6,2 C 4,4 C 6,7 C 93 % 1015,4 hPa 0,0 l/m 0 min 0 min 0 W/m 0,0 km/h (0 Bft) 95,74 %
13.10.2020 23:22 6,2 C 4,4 C 6,7 C 93 % 1015,4 hPa 0,0 l/m 0 min 0 min 0 W/m 0,0 km/h (0 Bft) 92,86 %
13.10.2020 23:24 6,2 C 4,4 C 6,7 C 93 % 1015,4 hPa 0,0 l/m 0 min 0 min 0 W/m 0,0 km/h (0 Bft) 95,74 %
13.10.2020 23:26 6,2 C 4,4 C 6,7 C 93 % 1015,4 hPa 0,0 l/m 0 min 0 min 0 W/m 0,0 km/h (0 Bft) 95,74 %
13.10.2020 23:28 6,1 C 5,0 C 6,7 C 93 % 1015,4 hPa 0,0 l/m 0 min 0 min 0 W/m 0,0 km/h (0 Bft) 95,74 %
13.10.2020 23:30 6,1 C 4,4 C 6,7 C 93 % 1015,5 hPa 0,0 l/m 0 min 0 min 0 W/m 0,0 km/h (0 Bft) 95,74 %
13.10.2020 23:32 6,1 C 5,0 C 6,7 C 93 % 1015,5 hPa 0,0 l/m 0 min 0 min 0 W/m 0,0 km/h (0 Bft) 93,48 %
13.10.2020 23:34 6,1 C 5,0 C 6,7 C 93 % 1015,5 hPa 0,0 l/m 0 min 0 min 0 W/m 0,0 km/h (0 Bft) 93,62 %
13.10.2020 23:36 6,1 C 4,4 C 6,7 C 93 % 1015,6 hPa 0,0 l/m 0 min 0 min 0 W/m 0,0 km/h (0 Bft) 95,74 %
13.10.2020 23:38 6,1 C 4,4 C 6,7 C 93 % 1015,5 hPa 0,0 l/m 0 min 0 min 0 W/m 0,0 km/h (0 Bft) 95,74 %
13.10.2020 23:40 6,0 C 4,4 C 6,7 C 93 % 1015,5 hPa 0,0 l/m 0 min 0 min 0 W/m 0,0 km/h (0 Bft) 95,74 %
13.10.2020 23:42 6,0 C 4,4 C 6,7 C 93 % 1015,5 hPa 0,0 l/m 0 min 0 min 0 W/m 0,0 km/h (0 Bft) 97,87 %
13.10.2020 23:44 5,9 C 4,4 C 6,7 C 93 % 1015,5 hPa 0,0 l/m 0 min 0 min 0 W/m 0,0 km/h (0 Bft) 100,00 %
13.10.2020 23:46 5,9 C 4,4 C 6,7 C 93 % 1015,5 hPa 0,0 l/m 0 min 0 min 0 W/m 0,0 km/h (0 Bft) 100,00 %
13.10.2020 23:48 5,9 C 4,4 C 6,7 C 93 % 1015,5 hPa 0,0 l/m 0 min 0 min 0 W/m 0,0 km/h (0 Bft) 100,00 %
13.10.2020 23:50 5,9 C 4,4 C 6,7 C 93 % 1015,5 hPa 0,0 l/m 0 min 0 min 0 W/m 0,0 km/h (0 Bft) 95,74 %
13.10.2020 23:52 5,9 C 4,4 C 6,7 C 93 % 1015,5 hPa 0,0 l/m 0 min 0 min 0 W/m 0,0 km/h (0 Bft) 100,00 %
13.10.2020 23:54 5,9 C 4,4 C 6,7 C 93 % 1015,5 hPa 0,0 l/m 0 min 0 min 0 W/m 0,0 km/h (0 Bft) 100,00 %
13.10.2020 23:56 5,9 C 4,4 C 6,7 C 93 % 1015,5 hPa 0,0 l/m 0 min 0 min 0 W/m 0,0 km/h (0 Bft) 100,00 %
13.10.2020 23:58 5,8 C 3,9 C 6,7 C 93 % 1015,5 hPa 0,0 l/m 0 min 0 min 0 W/m 0,0 km/h (0 Bft) 100,00 %
_ Min-Zeit 23:58 23:58 21:14 15:34 14:38 - - - - 00:00 07:18
Minimum _ 5,8 C 3,9 C 6,7 C 76 % 1012,6 hPa - - - - 0,0 km/h (0 Bft) 34,38 %
_ Max-Zeit 15:56 12:42 13:34 10:02 00:02 00:00 12:07 00:00 12:38 11:06 00:08
Maximum _ 13,7 C 16,1 C 15,0 C 99 % 1016,9 hPa 0,0 l/m 3 min 0 min 470 W/m 25,7 km/h
O (4 Bft)
100,00 %
Durchschnitt _ 8,8 C 8,5 C 10,3 C 90 % 1014,1 hPa #0,0 l/m #5:38 h #0 min. 191 W/m 9,1 km/h (2 Bft) 97,12 %
© 2020 W. Hausmann